Observation data for Van Horn on 03/26/2019      Previous  Date  Next       Current Mesonet Observations  Soil Data  Daily Summary Page  Observations in Plain Language
KVA1 260500Z 05009KT 17/00 A3024 RMK A01 T01740000  RH  031%=      5-min Rain = 0
KVA1 260501Z 05008KT 17/00 A3024 RMK A01 T017400-0  RH  031%=      5-min Rain = 0
KVA1 260502Z 05007KT 17/M00 A3024 RMK A01 T01731001  RH  031%=      5-min Rain = 0
KVA1 260503Z 05008KT 17/M00 A3024 RMK A01 T01711001  RH  031%=      5-min Rain = 0
KVA1 260504Z 04007KT 17/M00 A3024 RMK A01 T01711001  RH  031%=      5-min Rain = 0
KVA1 260505Z 05007KT 17/M00 A3024 RMK A01 T01701001  RH  031%=      5-min Rain = 0
KVA1 260506Z 05008KT 17/M00 A3024 RMK A01 T01691001  RH  031%=      5-min Rain = 0
KVA1 260507Z 05007KT 17/M00 A3024 RMK A01 T01691001  RH  032%=      5-min Rain = 0
KVA1 260508Z 05007KT 17/M00 A3024 RMK A01 T01681001  RH  032%=      5-min Rain = 0
KVA1 260509Z 05007KT 17/M00 A3024 RMK A01 T01671002  RH  032%=      5-min Rain = 0
KVA1 260510Z 05008KT 17/M00 A3024 RMK A01 T01671001  RH  032%=      5-min Rain = 0
KVA1 260511Z 05006KT 17/M00 A3024 RMK A01 T01661002  RH  032%=      5-min Rain = 0
KVA1 260512Z 04007KT 17/M00 A3024 RMK A01 T01651003  RH  032%=      5-min Rain = 0
KVA1 260513Z 05006KT 16/M00 A3024 RMK A01 T01641002  RH  032%=      5-min Rain = 0
KVA1 260514Z 04006KT 16/M00 A3024 RMK A01 T01631003  RH  032%=      5-min Rain = 0
KVA1 260515Z 05006KT 16/M00 A3024 RMK A01 T01621002  RH  033%=      5-min Rain = 0
KVA1 260516Z 04007KT 16/M00 A3024 RMK A01 T01621002  RH  033%=      5-min Rain = 0
KVA1 260517Z 04007KT 16/M00 A3024 RMK A01 T01621002  RH  033%=      5-min Rain = 0
KVA1 260518Z 04007KT 16/M00 A3024 RMK A01 T01621003  RH  033%=      5-min Rain = 0
KVA1 260519Z 05008KT 16/M00 A3024 RMK A01 T01611003  RH  033%=      5-min Rain = 0
KVA1 260520Z 05007KT 16/M00 A3024 RMK A01 T01611002  RH  033%=      5-min Rain = 0
KVA1 260521Z 04007KT 16/M00 A3024 RMK A01 T01611003  RH  033%=      5-min Rain = 0
KVA1 260522Z 03007KT 16/M00 A3024 RMK A01 T01611003  RH  033%=      5-min Rain = 0
KVA1 260523Z 04007KT 16/M00 A3024 RMK A01 T01601003  RH  033%=      5-min Rain = 0
KVA1 260524Z 04008KT 16/M00 A3024 RMK A01 T01591003  RH  033%=      5-min Rain = 0
KVA1 260525Z 04007KT 16/M00 A3024 RMK A01 T01591003  RH  033%=      5-min Rain = 0
KVA1 260526Z 04007KT 16/M00 A3024 RMK A01 T01591003  RH  033%=      5-min Rain = 0
KVA1 260527Z 04006KT 16/M00 A3024 RMK A01 T01581003  RH  033%=      5-min Rain = 0
KVA1 260528Z 04007KT 16/M00 A3024 RMK A01 T01571003  RH  033%=      5-min Rain = 0
KVA1 260529Z 04007KT 16/M00 A3024 RMK A01 T01571003  RH  033%=      5-min Rain = 0
KVA1 260530Z 04008KT 16/M00 A3024 RMK A01 T01571003  RH  033%=      5-min Rain = 0
KVA1 260531Z 04008KT 16/M00 A3024 RMK A01 T01571003  RH  033%=      5-min Rain = 0
KVA1 260532Z 04006KT 16/M00 A3024 RMK A01 T01571003  RH  033%=      5-min Rain = 0
KVA1 260533Z 03007KT 16/M00 A3024 RMK A01 T01571004  RH  033%=      5-min Rain = 0
KVA1 260534Z 04007KT 16/M00 A3024 RMK A01 T01571004  RH  033%=      5-min Rain = 0
KVA1 260535Z 04007KT 16/M00 A3024 RMK A01 T01571003  RH  033%=      5-min Rain = 0
KVA1 260536Z 04006KT 16/M00 A3024 RMK A01 T01571004  RH  033%=      5-min Rain = 0
KVA1 260537Z 04008KT 16/M00 A3024 RMK A01 T01561004  RH  034%=      5-min Rain = 0
KVA1 260538Z 04007KT 16/M00 A3024 RMK A01 T01561003  RH  034%=      5-min Rain = 0
KVA1 260539Z 04007KT 16/M00 A3024 RMK A01 T01561003  RH  034%=      5-min Rain = 0
KVA1 260540Z 03007KT 16/M00 A3024 RMK A01 T01561004  RH  034%=      5-min Rain = 0
KVA1 260541Z 03007KT 16/M00 A3024 RMK A01 T01551004  RH  034%=      5-min Rain = 0
KVA1 260542Z 04008KT 16/M00 A3024 RMK A01 T01551004  RH  034%=      5-min Rain = 0
KVA1 260543Z 04008KT 15/M00 A3024 RMK A01 T01541004  RH  034%=      5-min Rain = 0
KVA1 260544Z 04007KT 15/M00 A3024 RMK A01 T01541004  RH  034%=      5-min Rain = 0
KVA1 260545Z 03006KT 15/M00 A3024 RMK A01 T01541004  RH  034%=      5-min Rain = 0
KVA1 260546Z 04006KT 15/M00 A3024 RMK A01 T01531004  RH  034%=      5-min Rain = 0
KVA1 260547Z 03006KT 15/M00 A3024 RMK A01 T01521004  RH  034%=      5-min Rain = 0
KVA1 260548Z 03007KT 15/M01 A3024 RMK A01 T01521005  RH  034%=      5-min Rain = 0
KVA1 260549Z 03007KT 15/M01 A3024 RMK A01 T01511005  RH  034%=      5-min Rain = 0
KVA1 260550Z 03007KT 15/M00 A3024 RMK A01 T01511004  RH  035%=      5-min Rain = 0
KVA1 260551Z 03007KT 15/M01 A3024 RMK A01 T01511005  RH  034%=      5-min Rain = 0
KVA1 260552Z 04008KT 15/M01 A3024 RMK A01 T01501005  RH  035%=      5-min Rain = 0
KVA1 260553Z 03007KT 15/M00 A3024 RMK A01 T01511004  RH  035%=      5-min Rain = 0
KVA1 260554Z 03007KT 15/M01 A3024 RMK A01 T01511005  RH  034%=      5-min Rain = 0
KVA1 260555Z 03006KT 15/M01 A3024 RMK A01 T01501005  RH  034%=      5-min Rain = 0
KVA1 260556Z 03007KT 15/M01 A3024 RMK A01 T01491005  RH  035%=      5-min Rain = 0
KVA1 260557Z 03006KT 15/M01 A3024 RMK A01 T01491005  RH  035%=      5-min Rain = 0
KVA1 260558Z 03006KT 15/M00 A3024 RMK A01 T01491004  RH  035%=      5-min Rain = 0
KVA1 260559Z 03006KT 15/M00 A3024 RMK A01 T01491004  RH  035%=      5-min Rain = 0
KVA1 260600Z 03005KT 15/M00 A3024 RMK A01 T01491004  RH  035%=      5-min Rain = 0
KVA1 260601Z 03005KT 15/M00 A3024 RMK A01 T01491004  RH  035%=      5-min Rain = 0
KVA1 260602Z 02005KT 15/M00 A3024 RMK A01 T01491004  RH  035%=      5-min Rain = 0
KVA1 260603Z 02003KT 15/M00 A3024 RMK A01 T01491004  RH  035%=      5-min Rain = 0
KVA1 260604Z 04001KT 15/M00 A3024 RMK A01 T01481004  RH  035%=      5-min Rain = 0
KVA1 260605Z 10001KT 15/M00 A3024 RMK A01 T01471004  RH  035%=      5-min Rain = 0
KVA1 260606Z 09002KT 15/M00 A3024 RMK A01 T01461004  RH  036%=      5-min Rain = 0
KVA1 260607Z 09001KT 15/M00 A3024 RMK A01 T01471004  RH  036%=      5-min Rain = 0
KVA1 260608Z 07002KT 15/M00 A3024 RMK A01 T01461004  RH  036%=      5-min Rain = 0
KVA1 260609Z 04002KT 15/M00 A3024 RMK A01 T01461004  RH  036%=      5-min Rain = 0
KVA1 260610Z 07001KT 15/M00 A3024 RMK A01 T01461004  RH  036%=      5-min Rain = 0
KVA1 260611Z 08000KT 15/M00 A3024 RMK A01 T01461004  RH  036%=      5-min Rain = 0
KVA1 260612Z 06000KT 15/M00 A3024 RMK A01 T01461004  RH  036%=      5-min Rain = 0
KVA1 260613Z 05001KT 15/M00 A3024 RMK A01 T01461004  RH  036%=      5-min Rain = 0
KVA1 260614Z 04002KT 15/M00 A3024 RMK A01 T01461004  RH  036%=      5-min Rain = 0
KVA1 260615Z 04002KT 15/M00 A3024 RMK A01 T01461004  RH  036%=      5-min Rain = 0
KVA1 260616Z 03002KT 15/M00 A3024 RMK A01 T01461003  RH  036%=      5-min Rain = 0
KVA1 260617Z 02002KT 15/M00 A3024 RMK A01 T01461004  RH  036%=      5-min Rain = 0
KVA1 260618Z 01003KT 15/M00 A3024 RMK A01 T01461004  RH  036%=      5-min Rain = 0
KVA1 260619Z 01003KT 15/M00 A3024 RMK A01 T01461004  RH  036%=      5-min Rain = 0
KVA1 260620Z 00004KT 14/M01 A3024 RMK A01 T01441005  RH  036%=      5-min Rain = 0
KVA1 260621Z 00004KT 14/M00 A3024 RMK A01 T01431004  RH  036%=      5-min Rain = 0
KVA1 260622Z 00004KT 14/M00 A3024 RMK A01 T01431004  RH  036%=      5-min Rain = 0
KVA1 260623Z 35004KT 14/M01 A3024 RMK A01 T01421005  RH  036%=      5-min Rain = 0
KVA1 260624Z 35005KT 14/M01 A3024 RMK A01 T01411005  RH  037%=      5-min Rain = 0
KVA1 260625Z 36005KT 14/M01 A3024 RMK A01 T01391005  RH  037%=      5-min Rain = 0
KVA1 260626Z 00005KT 14/M00 A3023 RMK A01 T01391004  RH  037%=      5-min Rain = 0
KVA1 260627Z 00006KT 14/M00 A3023 RMK A01 T01401004  RH  037%=      5-min Rain = 0
KVA1 260628Z 00006KT 14/M00 A3023 RMK A01 T01391004  RH  037%=      5-min Rain = 0
KVA1 260629Z 00006KT 14/M00 A3023 RMK A01 T01391003  RH  038%=      5-min Rain = 0
KVA1 260630Z 00006KT 14/M00 A3023 RMK A01 T01391003  RH  038%=      5-min Rain = 0
KVA1 260631Z 00006KT 14/M00 A3023 RMK A01 T01391003  RH  038%=      5-min Rain = 0
KVA1 260632Z 00006KT 14/M00 A3023 RMK A01 T01401003  RH  038%=      5-min Rain = 0
KVA1 260633Z 36005KT 14/M00 A3023 RMK A01 T01391003  RH  038%=      5-min Rain = 0
KVA1 260634Z 00006KT 14/M00 A3023 RMK A01 T01391003  RH  038%=      5-min Rain = 0
KVA1 260635Z 01006KT 14/M00 A3023 RMK A01 T01381003  RH  038%=      5-min Rain = 0
KVA1 260636Z 36005KT 14/M00 A3023 RMK A01 T01401002  RH  038%=      5-min Rain = 0
KVA1 260637Z 01005KT 14/M00 A3023 RMK A01 T01401002  RH  038%=      5-min Rain = 0
KVA1 260638Z 36004KT 14/M00 A3023 RMK A01 T01401003  RH  037%=      5-min Rain = 0
KVA1 260639Z 34004KT 14/M00 A3023 RMK A01 T01401003  RH  038%=      5-min Rain = 0
KVA1 260640Z 36004KT 14/M00 A3023 RMK A01 T01401002  RH  038%=      5-min Rain = 0
KVA1 260641Z 36005KT 14/M00 A3023 RMK A01 T01391004  RH  037%=      5-min Rain = 0
KVA1 260642Z 35004KT 14/M00 A3023 RMK A01 T01381003  RH  038%=      5-min Rain = 0
KVA1 260643Z 00004KT 14/M00 A3023 RMK A01 T01381003  RH  038%=      5-min Rain = 0
KVA1 260644Z 01003KT 14/M00 A3023 RMK A01 T01381004  RH  038%=      5-min Rain = 0
KVA1 260645Z 01005KT 14/M00 A3023 RMK A01 T01371003  RH  038%=      5-min Rain = 0
KVA1 260646Z 03003KT 14/00 A3023 RMK A01 T01390001  RH  039%=      5-min Rain = 0
KVA1 260647Z 00004KT 14/00 A3023 RMK A01 T01420000  RH  038%=      5-min Rain = 0
KVA1 260648Z 02004KT 14/00 A3023 RMK A01 T014400-0  RH  037%=      5-min Rain = 0
KVA1 260649Z 02005KT 14/M00 A3023 RMK A01 T01431001  RH  037%=      5-min Rain = 0
KVA1 260650Z 00006KT 14/00 A3023 RMK A01 T014300-0  RH  037%=      5-min Rain = 0
KVA1 260651Z 00006KT 14/00 A3023 RMK A01 T01430000  RH  038%=      5-min Rain = 0
KVA1 260652Z 36007KT 14/00 A3023 RMK A01 T01440000  RH  037%=      5-min Rain = 0
KVA1 260653Z 01006KT 14/M00 A3023 RMK A01 T01441001  RH  037%=      5-min Rain = 0
KVA1 260654Z 03007KT 14/00 A3023 RMK A01 T01440003  RH  038%=      5-min Rain = 0
KVA1 260655Z 02006KT 15/01 A3023 RMK A01 T01500007  RH  038%=      5-min Rain = 0
KVA1 260656Z 01006KT 15/01 A3023 RMK A01 T01530005  RH  037%=      5-min Rain = 0
KVA1 260657Z 01007KT 15/01 A3023 RMK A01 T01540005  RH  036%=      5-min Rain = 0
KVA1 260658Z 02006KT 15/00 A3023 RMK A01 T01520002  RH  036%=      5-min Rain = 0
KVA1 260659Z 01005KT 15/00 A3023 RMK A01 T01510004  RH  037%=      5-min Rain = 0
KVA1 260700Z 01005KT 15/00 A3023 RMK A01 T01510004  RH  037%=      5-min Rain = 0
KVA1 260701Z 03006KT 15/00 A3023 RMK A01 T01510004  RH  037%=      5-min Rain = 0
KVA1 260702Z 02006KT 15/01 A3023 RMK A01 T01520005  RH  037%=      5-min Rain = 0
KVA1 260703Z 02006KT 15/01 A3023 RMK A01 T01530005  RH  036%=      5-min Rain = 0
KVA1 260704Z 02006KT 15/00 A3023 RMK A01 T01520004  RH  036%=      5-min Rain = 0
KVA1 260705Z 03005KT 15/00 A3023 RMK A01 T01510004  RH  036%=      5-min Rain = 0
KVA1 260706Z 03006KT 15/01 A3023 RMK A01 T01510005  RH  037%=      5-min Rain = 0
KVA1 260707Z 01006KT 15/01 A3023 RMK A01 T01510006  RH  037%=      5-min Rain = 0
KVA1 260708Z 01006KT 15/01 A3023 RMK A01 T01520006  RH  037%=      5-min Rain = 0
KVA1 260709Z 01006KT 15/01 A3023 RMK A01 T01520005  RH  037%=      5-min Rain = 0
KVA1 260710Z 02006KT 15/00 A3023 RMK A01 T01510004  RH  037%=      5-min Rain = 0
KVA1 260711Z 01005KT 15/01 A3023 RMK A01 T01500005  RH  037%=      5-min Rain = 0
KVA1 260712Z 01006KT 15/00 A3023 RMK A01 T01500004  RH  037%=      5-min Rain = 0
KVA1 260713Z 01005KT 15/00 A3023 RMK A01 T01490004  RH  037%=      5-min Rain = 0
KVA1 260714Z 02005KT 15/00 A3023 RMK A01 T01480004  RH  037%=      5-min Rain = 0
KVA1 260715Z 01006KT 15/00 A3023 RMK A01 T01460004  RH  038%=      5-min Rain = 0
KVA1 260716Z 02005KT 15/00 A3023 RMK A01 T01450003  RH  038%=      5-min Rain = 0
KVA1 260717Z 02006KT 14/00 A3023 RMK A01 T01440004  RH  038%=      5-min Rain = 0
KVA1 260718Z 02007KT 14/00 A3023 RMK A01 T01440004  RH  038%=      5-min Rain = 0
KVA1 260719Z 02007KT 14/00 A3023 RMK A01 T01440004  RH  038%=      5-min Rain = 0
KVA1 260720Z 02007KT 14/00 A3023 RMK A01 T01430004  RH  038%=      5-min Rain = 0
KVA1 260721Z 03007KT 14/00 A3023 RMK A01 T01430004  RH  039%=      5-min Rain = 0
KVA1 260722Z 03006KT 14/00 A3023 RMK A01 T01430004  RH  039%=      5-min Rain = 0
KVA1 260723Z 03007KT 14/00 A3023 RMK A01 T01430004  RH  039%=      5-min Rain = 0
KVA1 260724Z 03007KT 14/00 A3023 RMK A01 T01430004  RH  039%=      5-min Rain = 0
KVA1 260725Z 03007KT 14/00 A3023 RMK A01 T01420004  RH  039%=      5-min Rain = 0
KVA1 260726Z 03007KT 14/00 A3023 RMK A01 T01420004  RH  039%=      5-min Rain = 0
KVA1 260727Z 03007KT 14/00 A3023 RMK A01 T01410003  RH  039%=      5-min Rain = 0
KVA1 260728Z 03008KT 14/00 A3023 RMK A01 T01400004  RH  039%=      5-min Rain = 0
KVA1 260729Z 03008KT 14/01 A3023 RMK A01 T01400005  RH  040%=      5-min Rain = 0
KVA1 260730Z 03007KT 14/01 A3023 RMK A01 T01410006  RH  040%=      5-min Rain = 0
KVA1 260731Z 03007KT 14/01 A3023 RMK A01 T01420006  RH  040%=      5-min Rain = 0
KVA1 260732Z 03006KT 14/01 A3023 RMK A01 T01420006  RH  040%=      5-min Rain = 0
KVA1 260733Z 03006KT 14/01 A3023 RMK A01 T01420007  RH  039%=      5-min Rain = 0
KVA1 260734Z 03006KT 14/01 A3023 RMK A01 T01430007  RH  039%=      5-min Rain = 0
KVA1 260735Z 03007KT 14/01 A3023 RMK A01 T01430007  RH  040%=      5-min Rain = 0
KVA1 260736Z 03006KT 14/01 A3023 RMK A01 T01430007  RH  040%=      5-min Rain = 0
KVA1 260737Z 03006KT 14/01 A3023 RMK A01 T01430007  RH  039%=      5-min Rain = 0
KVA1 260738Z 03006KT 14/01 A3023 RMK A01 T01430007  RH  039%=      5-min Rain = 0
KVA1 260739Z 02006KT 14/01 A3023 RMK A01 T01430007  RH  039%=      5-min Rain = 0
KVA1 260740Z 02006KT 14/01 A3023 RMK A01 T01430007  RH  039%=      5-min Rain = 0
KVA1 260741Z 02006KT 14/01 A3023 RMK A01 T01420007  RH  040%=      5-min Rain = 0
KVA1 260742Z 03006KT 14/01 A3023 RMK A01 T01410006  RH  040%=      5-min Rain = 0
KVA1 260743Z 03006KT 14/01 A3023 RMK A01 T01410006  RH  040%=      5-min Rain = 0
KVA1 260744Z 02006KT 14/01 A3023 RMK A01 T01400006  RH  040%=      5-min Rain = 0
KVA1 260745Z 03006KT 14/01 A3023 RMK A01 T01410007  RH  040%=      5-min Rain = 0
KVA1 260746Z 02005KT 14/01 A3023 RMK A01 T01400007  RH  040%=      5-min Rain = 0
KVA1 260747Z 02005KT 14/01 A3023 RMK A01 T01400006  RH  040%=      5-min Rain = 0
KVA1 260748Z 02005KT 14/01 A3023 RMK A01 T01390006  RH  040%=      5-min Rain = 0
KVA1 260749Z 02005KT 14/01 A3023 RMK A01 T01380006  RH  040%=      5-min Rain = 0
KVA1 260750Z 02005KT 14/01 A3023 RMK A01 T01380005  RH  040%=      5-min Rain = 0
KVA1 260751Z 03006KT 14/01 A3023 RMK A01 T01370006  RH  041%=      5-min Rain = 0
KVA1 260752Z 03006KT 14/01 A3023 RMK A01 T01370006  RH  041%=      5-min Rain = 0
KVA1 260753Z 03006KT 14/01 A3023 RMK A01 T01370006  RH  041%=      5-min Rain = 0
KVA1 260754Z 03006KT 14/01 A3023 RMK A01 T01370007  RH  041%=      5-min Rain = 0
KVA1 260755Z 03006KT 14/01 A3023 RMK A01 T01370007  RH  041%=      5-min Rain = 0
KVA1 260756Z 03006KT 14/01 A3023 RMK A01 T01380007  RH  041%=      5-min Rain = 0
KVA1 260757Z 03006KT 14/01 A3023 RMK A01 T01370007  RH  041%=      5-min Rain = 0
KVA1 260758Z 03006KT 14/01 A3023 RMK A01 T01370007  RH  041%=      5-min Rain = 0
KVA1 260759Z 03006KT 14/01 A3023 RMK A01 T01370008  RH  041%=      5-min Rain = 0
KVA1 260800Z 02006KT 14/01 A3022 RMK A01 T01370008  RH  041%=      5-min Rain = 0
KVA1 260801Z 02007KT 14/01 A3022 RMK A01 T01360008  RH  041%=      5-min Rain = 0
KVA1 260802Z 02006KT 14/01 A3022 RMK A01 T01360007  RH  041%=      5-min Rain = 0
KVA1 260803Z 02006KT 14/01 A3022 RMK A01 T01360008  RH  042%=      5-min Rain = 0
KVA1 260804Z 02006KT 14/01 A3022 RMK A01 T01360008  RH  042%=      5-min Rain = 0
KVA1 260805Z 02006KT 14/01 A3022 RMK A01 T01360008  RH  042%=      5-min Rain = 0
KVA1 260806Z 02006KT 14/01 A3022 RMK A01 T01360008  RH  042%=      5-min Rain = 0
KVA1 260807Z 02006KT 14/01 A3022 RMK A01 T01350008  RH  042%=      5-min Rain = 0
KVA1 260808Z 02005KT 14/01 A3022 RMK A01 T01350008  RH  042%=      5-min Rain = 0
KVA1 260809Z 02005KT 14/01 A3022 RMK A01 T01360008  RH  042%=      5-min Rain = 0
KVA1 260810Z 02005KT 14/01 A3022 RMK A01 T01350008  RH  042%=      5-min Rain = 0
KVA1 260811Z 02005KT 14/01 A3022 RMK A01 T01350008  RH  042%=      5-min Rain = 0
KVA1 260812Z 02006KT 14/01 A3022 RMK A01 T01350008  RH  042%=      5-min Rain = 0
KVA1 260813Z 02006KT 14/01 A3022 RMK A01 T01360009  RH  042%=      5-min Rain = 0
KVA1 260814Z 02006KT 14/01 A3022 RMK A01 T01350009  RH  042%=      5-min Rain = 0
KVA1 260815Z 02006KT 14/01 A3022 RMK A01 T01350009  RH  042%=      5-min Rain = 0
KVA1 260816Z 02006KT 14/01 A3022 RMK A01 T01350009  RH  042%=      5-min Rain = 0
KVA1 260817Z 02007KT 14/01 A3022 RMK A01 T01360010  RH  042%=      5-min Rain = 0
KVA1 260818Z 02006KT 14/01 A3022 RMK A01 T01360010  RH  042%=      5-min Rain = 0
KVA1 260819Z 01006KT 14/01 A3022 RMK A01 T01370011  RH  042%=      5-min Rain = 0
KVA1 260820Z 01007KT 14/01 A3022 RMK A01 T01380011  RH  042%=      5-min Rain = 0
KVA1 260821Z 01006KT 14/01 A3022 RMK A01 T01380011  RH  042%=      5-min Rain = 0
KVA1 260822Z 02006KT 14/01 A3022 RMK A01 T01390011  RH  042%=      5-min Rain = 0
KVA1 260823Z 01006KT 14/01 A3022 RMK A01 T01380010  RH  042%=      5-min Rain = 0
KVA1 260824Z 01006KT 14/01 A3022 RMK A01 T01380011  RH  042%=      5-min Rain = 0
KVA1 260825Z 01006KT 14/01 A3022 RMK A01 T01390011  RH  042%=      5-min Rain = 0
KVA1 260826Z 01006KT 14/01 A3022 RMK A01 T01380010  RH  042%=      5-min Rain = 0
KVA1 260827Z 02006KT 14/01 A3022 RMK A01 T01370010  RH  042%=      5-min Rain = 0
KVA1 260828Z 02006KT 14/01 A3022 RMK A01 T01360010  RH  042%=      5-min Rain = 0
KVA1 260829Z 02006KT 14/01 A3022 RMK A01 T01360010  RH  042%=      5-min Rain = 0
KVA1 260830Z 02006KT 14/01 A3022 RMK A01 T01360010  RH  042%=      5-min Rain = 0
KVA1 260831Z 02006KT 14/01 A3022 RMK A01 T01350010  RH  042%=      5-min Rain = 0
KVA1 260832Z 03006KT 13/01 A3022 RMK A01 T01340010  RH  042%=      5-min Rain = 0
KVA1 260833Z 02006KT 13/01 A3022 RMK A01 T01340009  RH  043%=      5-min Rain = 0
KVA1 260834Z 02006KT 13/01 A3022 RMK A01 T01330009  RH  043%=      5-min Rain = 0
KVA1 260835Z 02006KT 13/01 A3022 RMK A01 T01330009  RH  043%=      5-min Rain = 0
KVA1 260836Z 02005KT 13/01 A3022 RMK A01 T01320009  RH  043%=      5-min Rain = 0
KVA1 260837Z 02005KT 13/01 A3022 RMK A01 T01310009  RH  043%=      5-min Rain = 0
KVA1 260838Z 02005KT 13/01 A3022 RMK A01 T01310009  RH  043%=      5-min Rain = 0
KVA1 260839Z 02005KT 13/01 A3022 RMK A01 T01310009  RH  043%=      5-min Rain = 0
KVA1 260840Z 01004KT 13/01 A3022 RMK A01 T01310009  RH  043%=      5-min Rain = 0
KVA1 260841Z 01004KT 13/01 A3022 RMK A01 T01300008  RH  043%=      5-min Rain = 0
KVA1 260842Z 01005KT 13/01 A3022 RMK A01 T01300008  RH  043%=      5-min Rain = 0
KVA1 260843Z 01005KT 13/01 A3022 RMK A01 T01300009  RH  044%=      5-min Rain = 0
KVA1 260844Z 01005KT 13/01 A3022 RMK A01 T01290009  RH  044%=      5-min Rain = 0
KVA1 260845Z 01005KT 13/01 A3022 RMK A01 T01290008  RH  044%=      5-min Rain = 0
KVA1 260846Z 01004KT 13/01 A3022 RMK A01 T01280008  RH  044%=      5-min Rain = 0
KVA1 260847Z 01004KT 13/01 A3022 RMK A01 T01270008  RH  044%=      5-min Rain = 0
KVA1 260848Z 01004KT 13/01 A3022 RMK A01 T01270008  RH  044%=      5-min Rain = 0
KVA1 260849Z 02005KT 13/01 A3022 RMK A01 T01270008  RH  044%=      5-min Rain = 0
KVA1 260850Z 02005KT 13/01 A3022 RMK A01 T01270009  RH  044%=      5-min Rain = 0
KVA1 260851Z 03005KT 13/01 A3022 RMK A01 T01270008  RH  044%=      5-min Rain = 0
KVA1 260852Z 03005KT 13/01 A3022 RMK A01 T01260009  RH  045%=      5-min Rain = 0
KVA1 260853Z 04005KT 13/01 A3022 RMK A01 T01260009  RH  045%=      5-min Rain = 0
KVA1 260854Z 05006KT 13/01 A3022 RMK A01 T01260009  RH  045%=      5-min Rain = 0
KVA1 260855Z 05005KT 13/01 A3022 RMK A01 T01260009  RH  045%=      5-min Rain = 0
KVA1 260856Z 05005KT 13/01 A3022 RMK A01 T01260008  RH  044%=      5-min Rain = 0
KVA1 260857Z 05005KT 13/01 A3022 RMK A01 T01270008  RH  044%=      5-min Rain = 0
KVA1 260858Z 05004KT 13/01 A3022 RMK A01 T01270008  RH  044%=      5-min Rain = 0
KVA1 260859Z 06004KT 13/01 A3022 RMK A01 T01270009  RH  044%=      5-min Rain = 0
KVA1 260900Z 06004KT 13/01 A3022 RMK A01 T01270009  RH  044%=      5-min Rain = 0
KVA1 260901Z 05004KT 13/01 A3022 RMK A01 T01280009  RH  044%=      5-min Rain = 0
KVA1 260902Z 06004KT 13/01 A3022 RMK A01 T01270008  RH  044%=      5-min Rain = 0
KVA1 260903Z 06005KT 13/01 A3022 RMK A01 T01260009  RH  045%=      5-min Rain = 0
KVA1 260904Z 06005KT 13/01 A3021 RMK A01 T01260009  RH  045%=      5-min Rain = 0
KVA1 260905Z 07005KT 13/01 A3021 RMK A01 T01260009  RH  045%=      5-min Rain = 0
KVA1 260906Z 07004KT 13/01 A3021 RMK A01 T01270009  RH  045%=      5-min Rain = 0
KVA1 260907Z 07004KT 13/01 A3022 RMK A01 T01270009  RH  045%=      5-min Rain = 0
KVA1 260908Z 07004KT 13/01 A3022 RMK A01 T01260009  RH  045%=      5-min Rain = 0
KVA1 260909Z 07004KT 13/01 A3022 RMK A01 T01260009  RH  045%=      5-min Rain = 0
KVA1 260910Z 06004KT 13/01 A3022 RMK A01 T01260009  RH  045%=      5-min Rain = 0
KVA1 260911Z 07004KT 13/01 A3022 RMK A01 T01260009  RH  045%=      5-min Rain = 0
KVA1 260912Z 07004KT 13/01 A3022 RMK A01 T01260009  RH  045%=      5-min Rain = 0
KVA1 260913Z 07004KT 13/01 A3022 RMK A01 T01260009  RH  045%=      5-min Rain = 0
KVA1 260914Z 06005KT 13/01 A3022 RMK A01 T01260009  RH  045%=      5-min Rain = 0
KVA1 260915Z 06004KT 13/01 A3022 RMK A01 T01250009  RH  045%=      5-min Rain = 0
KVA1 260916Z 07004KT 13/01 A3022 RMK A01 T01250009  RH  045%=      5-min Rain = 0
KVA1 260917Z 07004KT 12/01 A3021 RMK A01 T01240008  RH  045%=      5-min Rain = 0
KVA1 260918Z 05005KT 12/01 A3021 RMK A01 T01240009  RH  045%=      5-min Rain = 0
KVA1 260919Z 05006KT 12/01 A3021 RMK A01 T01240008  RH  045%=      5-min Rain = 0
KVA1 260920Z 04006KT 12/01 A3021 RMK A01 T01240008  RH  045%=      5-min Rain = 0
KVA1 260921Z 03006KT 13/01 A3021 RMK A01 T01260008  RH  044%=      5-min Rain = 0
KVA1 260922Z 03006KT 13/01 A3021 RMK A01 T01260007  RH  044%=      5-min Rain = 0
KVA1 260923Z 02007KT 13/01 A3021 RMK A01 T01260007  RH  044%=      5-min Rain = 0
KVA1 260924Z 02007KT 13/01 A3021 RMK A01 T01260007  RH  044%=      5-min Rain = 0
KVA1 260925Z 02007KT 13/01 A3021 RMK A01 T01260006  RH  044%=      5-min Rain = 0
KVA1 260926Z 01006KT 13/01 A3021 RMK A01 T01260006  RH  044%=      5-min Rain = 0
KVA1 260927Z 01008KT 13/01 A3021 RMK A01 T01260006  RH  044%=      5-min Rain = 0
KVA1 260928Z 01007KT 13/01 A3021 RMK A01 T01250006  RH  044%=      5-min Rain = 0
KVA1 260929Z 01008KT 13/01 A3021 RMK A01 T01250007  RH  044%=      5-min Rain = 0
KVA1 260930Z 01007KT 12/01 A3021 RMK A01 T01240007  RH  045%=      5-min Rain = 0
KVA1 260931Z 02007KT 12/01 A3021 RMK A01 T01240008  RH  045%=      5-min Rain = 0
KVA1 260932Z 01007KT 13/01 A3021 RMK A01 T01250009  RH  045%=      5-min Rain = 0
KVA1 260933Z 01007KT 12/01 A3021 RMK A01 T01240008  RH  045%=      5-min Rain = 0
KVA1 260934Z 01007KT 12/01 A3021 RMK A01 T01240009  RH  045%=      5-min Rain = 0
KVA1 260935Z 01007KT 13/01 A3021 RMK A01 T01250010  RH  045%=      5-min Rain = 0
KVA1 260936Z 01007KT 13/01 A3021 RMK A01 T01250011  RH  046%=      5-min Rain = 0
KVA1 260937Z 01007KT 13/01 A3021 RMK A01 T01260011  RH  045%=      5-min Rain = 0
KVA1 260938Z 01007KT 13/01 A3021 RMK A01 T01270012  RH  045%=      5-min Rain = 0
KVA1 260939Z 01007KT 13/01 A3021 RMK A01 T01270012  RH  045%=      5-min Rain = 0
KVA1 260940Z 02007KT 13/01 A3021 RMK A01 T01270013  RH  046%=      5-min Rain = 0
KVA1 260941Z 02007KT 13/01 A3021 RMK A01 T01270012  RH  046%=      5-min Rain = 0
KVA1 260942Z 01007KT 13/01 A3021 RMK A01 T01270013  RH  046%=      5-min Rain = 0
KVA1 260943Z 01006KT 13/01 A3021 RMK A01 T01280014  RH  046%=      5-min Rain = 0
KVA1 260944Z 01006KT 13/01 A3021 RMK A01 T01280013  RH  046%=      5-min Rain = 0
KVA1 260945Z 01006KT 13/01 A3021 RMK A01 T01270013  RH  046%=      5-min Rain = 0
KVA1 260946Z 01005KT 13/01 A3021 RMK A01 T01270014  RH  046%=      5-min Rain = 0
KVA1 260947Z 01006KT 13/01 A3021 RMK A01 T01270013  RH  046%=      5-min Rain = 0
KVA1 260948Z 01005KT 13/01 A3021 RMK A01 T01270014  RH  046%=      5-min Rain = 0
KVA1 260949Z 01006KT 13/01 A3021 RMK A01 T01260014  RH  046%=      5-min Rain = 0
KVA1 260950Z 02006KT 13/01 A3021 RMK A01 T01260014  RH  046%=      5-min Rain = 0
KVA1 260951Z 02005KT 13/01 A3021 RMK A01 T01260014  RH  046%=      5-min Rain = 0
KVA1 260952Z 01005KT 13/01 A3021 RMK A01 T01260014  RH  046%=      5-min Rain = 0
KVA1 260953Z 01005KT 13/01 A3021 RMK A01 T01250014  RH  047%=      5-min Rain = 0
KVA1 260954Z 01004KT 13/01 A3021 RMK A01 T01250014  RH  047%=      5-min Rain = 0
KVA1 260955Z 02004KT 13/02 A3021 RMK A01 T01250015  RH  047%=      5-min Rain = 0
KVA1 260956Z 02004KT 13/01 A3021 RMK A01 T01250014  RH  047%=      5-min Rain = 0
KVA1 260957Z 02004KT 13/01 A3021 RMK A01 T01250014  RH  047%=      5-min Rain = 0
KVA1 260958Z 02005KT 12/01 A3021 RMK A01 T01240014  RH  047%=      5-min Rain = 0
KVA1 260959Z 03004KT 12/01 A3021 RMK A01 T01240014  RH  047%=      5-min Rain = 0
KVA1 261000Z 04004KT 12/01 A3021 RMK A01 T01230014  RH  047%=      5-min Rain = 0
KVA1 261001Z 04004KT 12/01 A3021 RMK A01 T01220014  RH  047%=      5-min Rain = 0
KVA1 261002Z 04003KT 12/01 A3021 RMK A01 T01220014  RH  048%=      5-min Rain = 0
KVA1 261003Z 03003KT 12/01 A3021 RMK A01 T01220014  RH  048%=      5-min Rain = 0
KVA1 261004Z 04003KT 12/01 A3021 RMK A01 T01220014  RH  048%=      5-min Rain = 0
KVA1 261005Z 04003KT 12/01 A3021 RMK A01 T01220014  RH  048%=      5-min Rain = 0
KVA1 261006Z 04003KT 12/01 A3021 RMK A01 T01220014  RH  048%=      5-min Rain = 0
KVA1 261007Z 04003KT 12/01 A3021 RMK A01 T01210014  RH  048%=      5-min Rain = 0
KVA1 261008Z 04004KT 12/01 A3021 RMK A01 T01210014  RH  048%=      5-min Rain = 0
KVA1 261009Z 04004KT 12/01 A3021 RMK A01 T01200014  RH  048%=      5-min Rain = 0
KVA1 261010Z 04004KT 12/01 A3021 RMK A01 T01200014  RH  048%=      5-min Rain = 0
KVA1 261011Z 05004KT 12/01 A3021 RMK A01 T01200014  RH  048%=      5-min Rain = 0
KVA1 261012Z 05004KT 12/01 A3021 RMK A01 T01200014  RH  048%=      5-min Rain = 0
KVA1 261013Z 06004KT 12/02 A3021 RMK A01 T01190015  RH  049%=      5-min Rain = 0
KVA1 261014Z 07004KT 12/01 A3021 RMK A01 T01190014  RH  049%=      5-min Rain = 0
KVA1 261015Z 08003KT 12/01 A3021 RMK A01 T01170013  RH  049%=      5-min Rain = 0
KVA1 261016Z 08003KT 12/01 A3021 RMK A01 T01160011  RH  049%=      5-min Rain = 0
KVA1 261017Z 08004KT 11/01 A3021 RMK A01 T01140010  RH  049%=      5-min Rain = 0
KVA1 261018Z 09004KT 11/01 A3021 RMK A01 T01120009  RH  049%=      5-min Rain = 0
KVA1 261019Z 08004KT 11/01 A3021 RMK A01 T01100009  RH  050%=      5-min Rain = 0
KVA1 261020Z 08004KT 11/01 A3021 RMK A01 T01100010  RH  050%=      5-min Rain = 0
KVA1 261021Z 07004KT 11/01 A3021 RMK A01 T01100010  RH  050%=      5-min Rain = 0
KVA1 261022Z 06004KT 11/01 A3021 RMK A01 T01100011  RH  050%=      5-min Rain = 0
KVA1 261023Z 06004KT 11/01 A3021 RMK A01 T01110011  RH  050%=      5-min Rain = 0
KVA1 261024Z 05004KT 11/01 A3021 RMK A01 T01110011  RH  050%=      5-min Rain = 0
KVA1 261025Z 06004KT 11/01 A3021 RMK A01 T01110012  RH  051%=      5-min Rain = 0
KVA1 261026Z 05005KT 11/01 A3021 RMK A01 T01130013  RH  050%=      5-min Rain = 0
KVA1 261027Z 05005KT 11/01 A3021 RMK A01 T01140013  RH  050%=      5-min Rain = 0
KVA1 261028Z 05005KT 11/01 A3021 RMK A01 T01140013  RH  050%=      5-min Rain = 0
KVA1 261029Z 05005KT 11/01 A3021 RMK A01 T01140013  RH  050%=      5-min Rain = 0
KVA1 261030Z 05005KT 11/01 A3021 RMK A01 T01140013  RH  050%=      5-min Rain = 0
KVA1 261031Z 05005KT 12/01 A3021 RMK A01 T01150014  RH  050%=      5-min Rain = 0
KVA1 261032Z 05006KT 12/02 A3021 RMK A01 T01150015  RH  050%=      5-min Rain = 0
KVA1 261033Z 05005KT 12/02 A3021 RMK A01 T01160015  RH  050%=      5-min Rain = 0
KVA1 261034Z 05006KT 12/02 A3021 RMK A01 T01170016  RH  050%=      5-min Rain = 0
KVA1 261035Z 05005KT 12/02 A3021 RMK A01 T01180017  RH  050%=      5-min Rain = 0
KVA1 261036Z 05005KT 12/02 A3021 RMK A01 T01190016  RH  049%=      5-min Rain = 0
KVA1 261037Z 05005KT 12/02 A3021 RMK A01 T01180016  RH  049%=      5-min Rain = 0
KVA1 261038Z 05005KT 12/02 A3021 RMK A01 T01180017  RH  050%=      5-min Rain = 0
KVA1 261039Z 06005KT 12/02 A3021 RMK A01 T01180016  RH  050%=      5-min Rain = 0
KVA1 261040Z 06006KT 12/02 A3021 RMK A01 T01170017  RH  050%=      5-min Rain = 0
KVA1 261041Z 06006KT 12/02 A3021 RMK A01 T01170017  RH  050%=      5-min Rain = 0
KVA1 261042Z 06006KT 12/02 A3021 RMK A01 T01170016  RH  050%=      5-min Rain = 0
KVA1 261043Z 06006KT 12/02 A3021 RMK A01 T01170017  RH  050%=      5-min Rain = 0
KVA1 261044Z 05006KT 12/02 A3021 RMK A01 T01170017  RH  050%=      5-min Rain = 0
KVA1 261045Z 05007KT 12/02 A3021 RMK A01 T01180017  RH  050%=      5-min Rain = 0
KVA1 261046Z 05007KT 12/02 A3021 RMK A01 T01190017  RH  050%=      5-min Rain = 0
KVA1 261047Z 05007KT 12/02 A3021 RMK A01 T01200017  RH  049%=      5-min Rain = 0
KVA1 261048Z 05006KT 12/02 A3021 RMK A01 T01200017  RH  049%=      5-min Rain = 0
KVA1 261049Z 06006KT 12/02 A3021 RMK A01 T01200017  RH  049%=      5-min Rain = 0
KVA1 261050Z 05006KT 12/02 A3021 RMK A01 T01200017  RH  049%=      5-min Rain = 0
KVA1 261051Z 05005KT 12/02 A3022 RMK A01 T01190016  RH  049%=      5-min Rain = 0
KVA1 261052Z 05005KT 12/02 A3022 RMK A01 T01180016  RH  050%=      5-min Rain = 0
KVA1 261053Z 04006KT 12/02 A3022 RMK A01 T01170016  RH  050%=      5-min Rain = 0
KVA1 261054Z 05006KT 12/02 A3022 RMK A01 T01170016  RH  050%=      5-min Rain = 0
KVA1 261055Z 05005KT 12/02 A3022 RMK A01 T01160015  RH  050%=      5-min Rain = 0
KVA1 261056Z 05006KT 12/02 A3022 RMK A01 T01150015  RH  050%=      5-min Rain = 0
KVA1 261057Z 05006KT 11/02 A3022 RMK A01 T01140015  RH  050%=      5-min Rain = 0
KVA1 261058Z 04006KT 11/01 A3022 RMK A01 T01130014  RH  051%=      5-min Rain = 0
KVA1 261059Z 04006KT 11/02 A3022 RMK A01 T01120015  RH  051%=      5-min Rain = 0
KVA1 261100Z 04006KT 11/02 A3022 RMK A01 T01120015  RH  051%=      5-min Rain = 0
KVA1 261101Z 04005KT 11/02 A3022 RMK A01 T01120016  RH  051%=      5-min Rain = 0
KVA1 261102Z 04006KT 11/02 A3022 RMK A01 T01120015  RH  051%=      5-min Rain = 0
KVA1 261103Z 04007KT 11/02 A3022 RMK A01 T01120015  RH  051%=      5-min Rain = 0
KVA1 261104Z 04006KT 11/02 A3022 RMK A01 T01130015  RH  051%=      5-min Rain = 0
KVA1 261105Z 04007KT 11/02 A3022 RMK A01 T01130015  RH  051%=      5-min Rain = 0
KVA1 261106Z 04007KT 11/02 A3022 RMK A01 T01140016  RH  051%=      5-min Rain = 0
KVA1 261107Z 04007KT 12/02 A3022 RMK A01 T01150016  RH  051%=      5-min Rain = 0
KVA1 261108Z 04007KT 12/02 A3022 RMK A01 T01150016  RH  050%=      5-min Rain = 0
KVA1 261109Z 04007KT 12/02 A3022 RMK A01 T01150016  RH  050%=      5-min Rain = 0
KVA1 261110Z 04006KT 12/02 A3022 RMK A01 T01150016  RH  050%=      5-min Rain = 0
KVA1 261111Z 04007KT 12/02 A3022 RMK A01 T01150016  RH  051%=      5-min Rain = 0
KVA1 261112Z 04007KT 12/02 A3022 RMK A01 T01150017  RH  051%=      5-min Rain = 0
KVA1 261113Z 04006KT 12/02 A3022 RMK A01 T01150017  RH  051%=      5-min Rain = 0
KVA1 261114Z 04006KT 12/02 A3022 RMK A01 T01150017  RH  051%=      5-min Rain = 0
KVA1 261115Z 04006KT 12/02 A3022 RMK A01 T01150017  RH  051%=      5-min Rain = 0
KVA1 261116Z 04006KT 12/02 A3022 RMK A01 T01150017  RH  051%=      5-min Rain = 0
KVA1 261117Z 04006KT 12/02 A3022 RMK A01 T01150017  RH  051%=      5-min Rain = 0
KVA1 261118Z 05006KT 12/02 A3022 RMK A01 T01150017  RH  051%=      5-min Rain = 0
KVA1 261119Z 05006KT 11/02 A3022 RMK A01 T01140017  RH  051%=      5-min Rain = 0
KVA1 261120Z 04006KT 11/02 A3022 RMK A01 T01140016  RH  051%=      5-min Rain = 0
KVA1 261121Z 05007KT 11/02 A3022 RMK A01 T01130016  RH  051%=      5-min Rain = 0
KVA1 261122Z 05006KT 11/02 A3022 RMK A01 T01130017  RH  051%=      5-min Rain = 0
KVA1 261123Z 05006KT 11/02 A3022 RMK A01 T01130017  RH  051%=      5-min Rain = 0
KVA1 261124Z 04006KT 11/02 A3022 RMK A01 T01130016  RH  051%=      5-min Rain = 0
KVA1 261125Z 04006KT 11/02 A3022 RMK A01 T01130016  RH  051%=      5-min Rain = 0
KVA1 261126Z 04006KT 11/02 A3023 RMK A01 T01120017  RH  052%=      5-min Rain = 0
KVA1 261127Z 04007KT 11/02 A3023 RMK A01 T01120016  RH  052%=      5-min Rain = 0
KVA1 261128Z 03007KT 11/02 A3023 RMK A01 T01130016  RH  052%=      5-min Rain = 0
KVA1 261129Z 03007KT 11/02 A3023 RMK A01 T01120016  RH  052%=      5-min Rain = 0
KVA1 261130Z 03007KT 11/02 A3023 RMK A01 T01130017  RH  052%=      5-min Rain = 0
KVA1 261131Z 03008KT 11/02 A3023 RMK A01 T01130017  RH  052%=      5-min Rain = 0
KVA1 261132Z 03007KT 11/02 A3023 RMK A01 T01130017  RH  052%=      5-min Rain = 0
KVA1 261133Z 02008KT 11/02 A3023 RMK A01 T01120017  RH  052%=      5-min Rain = 0
KVA1 261134Z 03008KT 11/02 A3023 RMK A01 T01130019  RH  052%=      5-min Rain = 0
KVA1 261135Z 02008KT 11/02 A3023 RMK A01 T01130020  RH  053%=      5-min Rain = 0
KVA1 261136Z 02008KT 11/02 A3023 RMK A01 T01140021  RH  053%=      5-min Rain = 0
KVA1 261137Z 02008KT 12/02 A3023 RMK A01 T01150022  RH  053%=      5-min Rain = 0
KVA1 261138Z 02007KT 12/02 A3023 RMK A01 T01150021  RH  053%=      5-min Rain = 0
KVA1 261139Z 02008KT 12/02 A3023 RMK A01 T01150022  RH  053%=      5-min Rain = 0
KVA1 261140Z 03007KT 12/02 A3023 RMK A01 T01150022  RH  053%=      5-min Rain = 0
KVA1 261141Z 03007KT 12/02 A3023 RMK A01 T01150022  RH  053%=      5-min Rain = 0
KVA1 261142Z 03007KT 12/02 A3023 RMK A01 T01150023  RH  053%=      5-min Rain = 0
KVA1 261143Z 03008KT 12/02 A3023 RMK A01 T01150023  RH  053%=      5-min Rain = 0
KVA1 261144Z 04006KT 12/02 A3023 RMK A01 T01150023  RH  053%=      5-min Rain = 0
KVA1 261145Z 02008KT 12/02 A3023 RMK A01 T01160023  RH  053%=      5-min Rain = 0
KVA1 261146Z 03007KT 12/02 A3023 RMK A01 T01150022  RH  053%=      5-min Rain = 0
KVA1 261147Z 04006KT 12/02 A3023 RMK A01 T01150023  RH  053%=      5-min Rain = 0
KVA1 261148Z 02006KT 12/02 A3023 RMK A01 T01160023  RH  053%=      5-min Rain = 0
KVA1 261149Z 03005KT 12/02 A3023 RMK A01 T01160023  RH  053%=      5-min Rain = 0
KVA1 261150Z 02006KT 12/02 A3023 RMK A01 T01160023  RH  053%=      5-min Rain = 0
KVA1 261151Z 03008KT 12/02 A3023 RMK A01 T01160023  RH  053%=      5-min Rain = 0
KVA1 261152Z 04008KT 12/02 A3023 RMK A01 T01160024  RH  053%=      5-min Rain = 0
KVA1 261153Z 03007KT 12/02 A3023 RMK A01 T01180024  RH  053%=      5-min Rain = 0
KVA1 261154Z 02006KT 12/02 A3023 RMK A01 T01180024  RH  053%=      5-min Rain = 0
KVA1 261155Z 02007KT 12/02 A3023 RMK A01 T01180024  RH  053%=      5-min Rain = 0
KVA1 261156Z 02007KT 12/03 A3023 RMK A01 T01170025  RH  053%=      5-min Rain = 0
KVA1 261157Z 02006KT 12/03 A3023 RMK A01 T01170025  RH  053%=      5-min Rain = 0
KVA1 261158Z 02007KT 12/03 A3023 RMK A01 T01170025  RH  053%=      5-min Rain = 0
KVA1 261159Z 02007KT 12/03 A3023 RMK A01 T01170025  RH  053%=      5-min Rain = 0
KVA1 261200Z 03008KT 12/03 A3023 RMK A01 T01170025  RH  053%=      5-min Rain = 0
KVA1 261201Z 02010KT 12/03 A3023 RMK A01 T01170025  RH  053%=      5-min Rain = 0
KVA1 261202Z 01008KT 12/03 A3023 RMK A01 T01170025  RH  053%=      5-min Rain = 0
KVA1 261203Z 02007KT 12/02 A3023 RMK A01 T01170024  RH  053%=      5-min Rain = 0
KVA1 261204Z 02006KT 12/02 A3023 RMK A01 T01170024  RH  053%=      5-min Rain = 0
KVA1 261205Z 02006KT 12/02 A3023 RMK A01 T01160024  RH  053%=      5-min Rain = 0
KVA1 261206Z 02007KT 12/02 A3023 RMK A01 T01150023  RH  053%=      5-min Rain = 0
KVA1 261207Z 02007KT 12/02 A3023 RMK A01 T01150024  RH  054%=      5-min Rain = 0
KVA1 261208Z 02007KT 12/02 A3023 RMK A01 T01150024  RH  054%=      5-min Rain = 0
KVA1 261209Z 03005KT 12/02 A3023 RMK A01 T01150024  RH  054%=      5-min Rain = 0
KVA1 261210Z 02006KT 12/02 A3023 RMK A01 T01150024  RH  054%=      5-min Rain = 0
KVA1 261211Z 02007KT 11/02 A3023 RMK A01 T01140024  RH  054%=      5-min Rain = 0
KVA1 261212Z 02007KT 11/02 A3023 RMK A01 T01130023  RH  054%=      5-min Rain = 0
KVA1 261213Z 03007KT 11/02 A3023 RMK A01 T01130024  RH  054%=      5-min Rain = 0
KVA1 261214Z 02006KT 11/02 A3023 RMK A01 T01140024  RH  054%=      5-min Rain = 0
KVA1 261215Z 02006KT 11/02 A3023 RMK A01 T01140024  RH  054%=      5-min Rain = 0
KVA1 261216Z 02006KT 11/02 A3023 RMK A01 T01130024  RH  054%=      5-min Rain = 0
KVA1 261217Z 02007KT 11/02 A3023 RMK A01 T01130024  RH  054%=      5-min Rain = 0
KVA1 261218Z 02006KT 11/02 A3023 RMK A01 T01130024  RH  054%=      5-min Rain = 0
KVA1 261219Z 03007KT 11/02 A3023 RMK A01 T01120024  RH  054%=      5-min Rain = 0
KVA1 261220Z 03005KT 11/02 A3023 RMK A01 T01120024  RH  055%=      5-min Rain = 0
KVA1 261221Z 03005KT 11/02 A3024 RMK A01 T01120024  RH  055%=      5-min Rain = 0
KVA1 261222Z 02005KT 11/02 A3024 RMK A01 T01120024  RH  055%=      5-min Rain = 0
KVA1 261223Z 02006KT 11/02 A3024 RMK A01 T01120023  RH  054%=      5-min Rain = 0
KVA1 261224Z 02006KT 11/02 A3024 RMK A01 T01110023  RH  055%=      5-min Rain = 0
KVA1 261225Z 02006KT 11/02 A3024 RMK A01 T01110024  RH  055%=      5-min Rain = 0
KVA1 261226Z 02006KT 11/03 A3024 RMK A01 T01110025  RH  055%=      5-min Rain = 0
KVA1 261227Z 02007KT 11/03 A3024 RMK A01 T01120025  RH  055%=      5-min Rain = 0
KVA1 261228Z 02007KT 11/02 A3024 RMK A01 T01120024  RH  055%=      5-min Rain = 0
KVA1 261229Z 03006KT 11/02 A3024 RMK A01 T01110024  RH  055%=      5-min Rain = 0
KVA1 261230Z 04006KT 11/03 A3024 RMK A01 T01120025  RH  055%=      5-min Rain = 0
KVA1 261231Z 03006KT 11/03 A3024 RMK A01 T01130025  RH  055%=      5-min Rain = 0
KVA1 261232Z 03007KT 11/03 A3023 RMK A01 T01130025  RH  055%=      5-min Rain = 0
KVA1 261233Z 03007KT 11/03 A3023 RMK A01 T01120025  RH  055%=      5-min Rain = 0
KVA1 261234Z 04007KT 11/03 A3024 RMK A01 T01120026  RH  055%=      5-min Rain = 0
KVA1 261235Z 04006KT 11/03 A3024 RMK A01 T01120025  RH  055%=      5-min Rain = 0
KVA1 261236Z 03007KT 11/03 A3024 RMK A01 T01130026  RH  055%=      5-min Rain = 0
KVA1 261237Z 02008KT 11/03 A3024 RMK A01 T01130026  RH  055%=      5-min Rain = 0
KVA1 261238Z 03008KT 11/03 A3024 RMK A01 T01130027  RH  055%=      5-min Rain = 0
KVA1 261239Z 03007KT 11/03 A3024 RMK A01 T01130027  RH  055%=      5-min Rain = 0
KVA1 261240Z 03006KT 11/03 A3024 RMK A01 T01140026  RH  055%=      5-min Rain = 0
KVA1 261241Z 02006KT 11/03 A3024 RMK A01 T01140026  RH  055%=      5-min Rain = 0
KVA1 261242Z 02007KT 11/03 A3024 RMK A01 T01130027  RH  055%=      5-min Rain = 0
KVA1 261243Z 02006KT 11/03 A3024 RMK A01 T01130027  RH  055%=      5-min Rain = 0
KVA1 261244Z 03007KT 11/03 A3024 RMK A01 T01130027  RH  055%=      5-min Rain = 0
KVA1 261245Z 03005KT 11/03 A3024 RMK A01 T01130027  RH  055%=      5-min Rain = 0
KVA1 261246Z 04005KT 11/03 A3024 RMK A01 T01130027  RH  055%=      5-min Rain = 0
KVA1 261247Z 03006KT 11/03 A3024 RMK A01 T01130027  RH  055%=      5-min Rain = 0
KVA1 261248Z 04005KT 11/03 A3024 RMK A01 T01130027  RH  055%=      5-min Rain = 0
KVA1 261249Z 04005KT 11/03 A3024 RMK A01 T01130027  RH  056%=      5-min Rain = 0
KVA1 261250Z 04005KT 11/03 A3024 RMK A01 T01120026  RH  056%=      5-min Rain = 0
KVA1 261251Z 04005KT 11/03 A3024 RMK A01 T01110026  RH  056%=      5-min Rain = 0
KVA1 261252Z 03005KT 11/03 A3024 RMK A01 T01110026  RH  056%=      5-min Rain = 0
KVA1 261253Z 03004KT 11/03 A3024 RMK A01 T01100026  RH  056%=      5-min Rain = 0
KVA1 261254Z 03004KT 11/03 A3024 RMK A01 T01100026  RH  056%=      5-min Rain = 0
KVA1 261255Z 02005KT 11/03 A3024 RMK A01 T01100027  RH  056%=      5-min Rain = 0
KVA1 261256Z 02005KT 11/03 A3024 RMK A01 T01100026  RH  056%=      5-min Rain = 0
KVA1 261257Z 02005KT 11/03 A3024 RMK A01 T01100026  RH  056%=      5-min Rain = 0
KVA1 261258Z 02005KT 11/03 A3024 RMK A01 T01090026  RH  056%=      5-min Rain = 0
KVA1 261259Z 02005KT 11/03 A3024 RMK A01 T01090026  RH  057%=      5-min Rain = 0
KVA1 261300Z 02005KT 11/03 A3024 RMK A01 T01090026  RH  057%=      5-min Rain = 0
KVA1 261301Z 02005KT 11/03 A3024 RMK A01 T01080026  RH  057%=      5-min Rain = 0
KVA1 261302Z 02005KT 11/03 A3024 RMK A01 T01080026  RH  057%=      5-min Rain = 0
KVA1 261303Z 02006KT 11/03 A3024 RMK A01 T01080026  RH  057%=      5-min Rain = 0
KVA1 261304Z 03005KT 11/03 A3025 RMK A01 T01070026  RH  057%=      5-min Rain = 0
KVA1 261305Z 03005KT 11/03 A3025 RMK A01 T01070026  RH  057%=      5-min Rain = 0
KVA1 261306Z 02005KT 11/03 A3025 RMK A01 T01070026  RH  057%=      5-min Rain = 0
KVA1 261307Z 02005KT 11/03 A3025 RMK A01 T01060026  RH  057%=      5-min Rain = 0
KVA1 261308Z 03006KT 11/03 A3025 RMK A01 T01060025  RH  057%=      5-min Rain = 0
KVA1 261309Z 03006KT 11/03 A3025 RMK A01 T01050025  RH  058%=      5-min Rain = 0
KVA1 261310Z 02006KT 11/03 A3025 RMK A01 T01050026  RH  058%=      5-min Rain = 0
KVA1 261311Z 02006KT 11/03 A3025 RMK A01 T01060026  RH  058%=      5-min Rain = 0
KVA1 261312Z 02006KT 11/03 A3025 RMK A01 T01060026  RH  058%=      5-min Rain = 0
KVA1 261313Z 02006KT 11/03 A3025 RMK A01 T01060026  RH  058%=      5-min Rain = 0
KVA1 261314Z 02006KT 11/03 A3025 RMK A01 T01060026  RH  058%=      5-min Rain = 0
KVA1 261315Z 02006KT 11/03 A3025 RMK A01 T01060026  RH  058%=      5-min Rain = 0
KVA1 261316Z 03005KT 11/03 A3025 RMK A01 T01060026  RH  058%=      5-min Rain = 0
KVA1 261317Z 03005KT 11/03 A3025 RMK A01 T01070026  RH  058%=      5-min Rain = 0
KVA1 261318Z 02005KT 11/03 A3025 RMK A01 T01060026  RH  057%=      5-min Rain = 0
KVA1 261319Z 03005KT 11/03 A3025 RMK A01 T01070026  RH  057%=      5-min Rain = 0
KVA1 261320Z 03005KT 11/03 A3025 RMK A01 T01070026  RH  057%=      5-min Rain = 0
KVA1 261321Z 02005KT 11/03 A3025 RMK A01 T01070026  RH  058%=      5-min Rain = 0
KVA1 261322Z 02005KT 11/03 A3025 RMK A01 T01070027  RH  058%=      5-min Rain = 0
KVA1 261323Z 03004KT 11/03 A3025 RMK A01 T01070027  RH  058%=      5-min Rain = 0
KVA1 261324Z 03005KT 11/03 A3025 RMK A01 T01070027  RH  058%=      5-min Rain = 0
KVA1 261325Z 03005KT 11/03 A3025 RMK A01 T01070028  RH  058%=      5-min Rain = 0
KVA1 261326Z 03004KT 11/03 A3025 RMK A01 T01080029  RH  058%=      5-min Rain = 0
KVA1 261327Z 03004KT 11/03 A3025 RMK A01 T01080029  RH  058%=      5-min Rain = 0
KVA1 261328Z 03005KT 11/03 A3025 RMK A01 T01090029  RH  058%=      5-min Rain = 0
KVA1 261329Z 03005KT 11/03 A3025 RMK A01 T01090030  RH  058%=      5-min Rain = 0
KVA1 261330Z 03005KT 11/03 A3025 RMK A01 T01100030  RH  058%=      5-min Rain = 0
KVA1 261331Z 03005KT 11/03 A3025 RMK A01 T01100031  RH  058%=      5-min Rain = 0
KVA1 261332Z 03005KT 11/03 A3025 RMK A01 T01100031  RH  058%=      5-min Rain = 0
KVA1 261333Z 03004KT 11/03 A3025 RMK A01 T01110031  RH  058%=      5-min Rain = 0
KVA1 261334Z 03005KT 11/03 A3025 RMK A01 T01110031  RH  058%=      5-min Rain = 0
KVA1 261335Z 03005KT 11/03 A3025 RMK A01 T01110031  RH  058%=      5-min Rain = 0
KVA1 261336Z 03005KT 11/03 A3025 RMK A01 T01120032  RH  058%=      5-min Rain = 0
KVA1 261337Z 03005KT 11/03 A3025 RMK A01 T01120032  RH  058%=      5-min Rain = 0
KVA1 261338Z 03006KT 11/03 A3025 RMK A01 T01130032  RH  058%=      5-min Rain = 0
KVA1 261339Z 03006KT 11/03 A3025 RMK A01 T01130032  RH  058%=      5-min Rain = 0
KVA1 261340Z 03006KT 11/03 A3025 RMK A01 T01130033  RH  058%=      5-min Rain = 0
KVA1 261341Z 03006KT 11/03 A3025 RMK A01 T01140033  RH  057%=      5-min Rain = 0
KVA1 261342Z 03006KT 12/03 A3025 RMK A01 T01150033  RH  057%=      5-min Rain = 0
KVA1 261343Z 03006KT 12/03 A3025 RMK A01 T01150033  RH  057%=      5-min Rain = 0
KVA1 261344Z 03006KT 12/03 A3025 RMK A01 T01150033  RH  057%=      5-min Rain = 0
KVA1 261345Z 04006KT 12/03 A3025 RMK A01 T01160033  RH  057%=      5-min Rain = 0
KVA1 261346Z 04005KT 12/03 A3025 RMK A01 T01160033  RH  057%=      5-min Rain = 0
KVA1 261347Z 04006KT 12/03 A3025 RMK A01 T01170033  RH  056%=      5-min Rain = 0
KVA1 261348Z 04006KT 12/03 A3025 RMK A01 T01170033  RH  056%=      5-min Rain = 0
KVA1 261349Z 04006KT 12/03 A3025 RMK A01 T01170033  RH  056%=      5-min Rain = 0
KVA1 261350Z 04006KT 12/03 A3025 RMK A01 T01180033  RH  056%=      5-min Rain = 0
KVA1 261351Z 04005KT 12/03 A3025 RMK A01 T01180033  RH  056%=      5-min Rain = 0
KVA1 261352Z 03005KT 12/03 A3025 RMK A01 T01190033  RH  056%=      5-min Rain = 0
KVA1 261353Z 04006KT 12/03 A3025 RMK A01 T01190033  RH  055%=      5-min Rain = 0
KVA1 261354Z 04006KT 12/03 A3025 RMK A01 T01200033  RH  055%=      5-min Rain = 0
KVA1 261355Z 03005KT 12/03 A3025 RMK A01 T01210034  RH  055%=      5-min Rain = 0
KVA1 261356Z 04006KT 12/03 A3025 RMK A01 T01210034  RH  055%=      5-min Rain = 0
KVA1 261357Z 04006KT 12/03 A3025 RMK A01 T01210034  RH  055%=      5-min Rain = 0
KVA1 261358Z 04005KT 12/03 A3025 RMK A01 T01210034  RH  055%=      5-min Rain = 0
KVA1 261359Z 04006KT 12/04 A3025 RMK A01 T01220035  RH  055%=      5-min Rain = 0
KVA1 261400Z 04005KT 12/04 A3025 RMK A01 T01220035  RH  055%=      5-min Rain = 0
KVA1 261401Z 04006KT 12/04 A3025 RMK A01 T01220035  RH  055%=      5-min Rain = 0
KVA1 261402Z 05006KT 12/04 A3025 RMK A01 T01230035  RH  055%=      5-min Rain = 0
KVA1 261403Z 04006KT 12/04 A3025 RMK A01 T01230036  RH  055%=      5-min Rain = 0
KVA1 261404Z 04006KT 12/04 A3025 RMK A01 T01230036  RH  055%=      5-min Rain = 0
KVA1 261405Z 05006KT 12/04 A3025 RMK A01 T01230036  RH  055%=      5-min Rain = 0
KVA1 261406Z 04006KT 12/04 A3025 RMK A01 T01240037  RH  055%=      5-min Rain = 0
KVA1 261407Z 04006KT 13/04 A3026 RMK A01 T01250037  RH  055%=      5-min Rain = 0
KVA1 261408Z 04007KT 13/04 A3026 RMK A01 T01250037  RH  055%=      5-min Rain = 0
KVA1 261409Z 04006KT 13/04 A3026 RMK A01 T01260037  RH  055%=      5-min Rain = 0
KVA1 261410Z 05006KT 13/04 A3026 RMK A01 T01260037  RH  055%=      5-min Rain = 0
KVA1 261411Z 05007KT 13/04 A3026 RMK A01 T01260037  RH  055%=      5-min Rain = 0
KVA1 261412Z 04007KT 13/04 A3026 RMK A01 T01270038  RH  055%=      5-min Rain = 0
KVA1 261413Z 04008KT 13/04 A3026 RMK A01 T01270038  RH  055%=      5-min Rain = 0
KVA1 261414Z 05006KT 13/04 A3026 RMK A01 T01280039  RH  055%=      5-min Rain = 0
KVA1 261415Z 05007KT 13/04 A3026 RMK A01 T01280039  RH  055%=      5-min Rain = 0
KVA1 261416Z 05006KT 13/04 A3026 RMK A01 T01280039  RH  055%=      5-min Rain = 0
KVA1 261417Z 05006KT 13/04 A3026 RMK A01 T01290039  RH  054%=      5-min Rain = 0
KVA1 261418Z 05006KT 13/04 A3026 RMK A01 T01300039  RH  054%=      5-min Rain = 0
KVA1 261419Z 05006KT 13/04 A3026 RMK A01 T01310039  RH  054%=      5-min Rain = 0
KVA1 261420Z 05007KT 13/04 A3026 RMK A01 T01320039  RH  053%=      5-min Rain = 0
KVA1 261421Z 06006KT 13/04 A3026 RMK A01 T01320039  RH  053%=      5-min Rain = 0
KVA1 261422Z 05007KT 13/04 A3026 RMK A01 T01320039  RH  053%=      5-min Rain = 0
KVA1 261423Z 05006KT 13/04 A3026 RMK A01 T01320040  RH  053%=      5-min Rain = 0
KVA1 261424Z 06008KT 13/04 A3026 RMK A01 T01330041  RH  053%=      5-min Rain = 0
KVA1 261425Z 05008KT 13/04 A3026 RMK A01 T01330039  RH  053%=      5-min Rain = 0
KVA1 261426Z 05008KT 13/04 A3026 RMK A01 T01330040  RH  053%=      5-min Rain = 0
KVA1 261427Z 06007KT 13/04 A3026 RMK A01 T01330040  RH  053%=      5-min Rain = 0
KVA1 261428Z 05006KT 13/04 A3026 RMK A01 T01340042  RH  054%=      5-min Rain = 0
KVA1 261429Z 05006KT 13/04 A3026 RMK A01 T01340042  RH  054%=      5-min Rain = 0
KVA1 261430Z 05006KT 14/04 A3026 RMK A01 T01350042  RH  053%=      5-min Rain = 0
KVA1 261431Z 05007KT 14/04 A3026 RMK A01 T01350042  RH  053%=      5-min Rain = 0
KVA1 261432Z 05006KT 14/04 A3026 RMK A01 T01350042  RH  053%=      5-min Rain = 0
KVA1 261433Z 06006KT 14/04 A3026 RMK A01 T01360042  RH  053%=      5-min Rain = 0
KVA1 261434Z 06006KT 14/04 A3027 RMK A01 T01360043  RH  053%=      5-min Rain = 0
KVA1 261435Z 06005KT 14/04 A3027 RMK A01 T01360043  RH  053%=      5-min Rain = 0
KVA1 261436Z 05006KT 14/04 A3027 RMK A01 T01350043  RH  054%=      5-min Rain = 0
KVA1 261437Z 04005KT 14/04 A3027 RMK A01 T01350043  RH  054%=      5-min Rain = 0
KVA1 261438Z 05004KT 14/04 A3027 RMK A01 T01350043  RH  054%=      5-min Rain = 0
KVA1 261439Z 05003KT 14/04 A3027 RMK A01 T01350044  RH  054%=      5-min Rain = 0
KVA1 261440Z 05002KT 14/04 A3027 RMK A01 T01360044  RH  054%=      5-min Rain = 0
KVA1 261441Z 05004KT 14/05 A3027 RMK A01 T01380045  RH  054%=      5-min Rain = 0
KVA1 261442Z 07005KT 14/05 A3027 RMK A01 T01380046  RH  054%=      5-min Rain = 0
KVA1 261443Z 06004KT 14/05 A3027 RMK A01 T01370045  RH  054%=      5-min Rain = 0
KVA1 261444Z 06003KT 14/05 A3027 RMK A01 T01360046  RH  054%=      5-min Rain = 0
KVA1 261445Z 04003KT 14/05 A3027 RMK A01 T01360046  RH  054%=      5-min Rain = 0
KVA1 261446Z 06005KT 14/05 A3027 RMK A01 T01380047  RH  054%=      5-min Rain = 0
KVA1 261447Z 06004KT 14/05 A3027 RMK A01 T01390046  RH  054%=      5-min Rain = 0
KVA1 261448Z 06004KT 14/05 A3027 RMK A01 T01390046  RH  054%=      5-min Rain = 0
KVA1 261449Z 06004KT 14/05 A3027 RMK A01 T01380046  RH  054%=      5-min Rain = 0
KVA1 261450Z 05003KT 14/05 A3027 RMK A01 T01380046  RH  054%=      5-min Rain = 0
KVA1 261451Z 07004KT 14/05 A3027 RMK A01 T01390047  RH  054%=      5-min Rain = 0
KVA1 261452Z 06004KT 14/05 A3027 RMK A01 T01410047  RH  053%=      5-min Rain = 0
KVA1 261453Z 06004KT 14/05 A3027 RMK A01 T01410047  RH  053%=      5-min Rain = 0
KVA1 261454Z 05005KT 14/05 A3027 RMK A01 T01420047  RH  053%=      5-min Rain = 0
KVA1 261455Z 06003KT 14/05 A3027 RMK A01 T01410046  RH  053%=      5-min Rain = 0
KVA1 261456Z 05004KT 14/05 A3027 RMK A01 T01410047  RH  053%=      5-min Rain = 0
KVA1 261457Z 03005KT 14/05 A3027 RMK A01 T01410047  RH  053%=      5-min Rain = 0
KVA1 261458Z 05004KT 14/05 A3027 RMK A01 T01420046  RH  053%=      5-min Rain = 0
KVA1 261459Z 06003KT 14/05 A3027 RMK A01 T01420047  RH  053%=      5-min Rain = 0
KVA1 261500Z 07004KT 14/05 A3027 RMK A01 T01420047  RH  053%=      5-min Rain = 0
KVA1 261501Z 06003KT 14/05 A3027 RMK A01 T01430047  RH  052%=      5-min Rain = 0
KVA1 261502Z 06005KT 14/05 A3027 RMK A01 T01440048  RH  052%=      5-min Rain = 0
KVA1 261503Z 05004KT 14/05 A3027 RMK A01 T01440047  RH  052%=      5-min Rain = 0
KVA1 261504Z 07004KT 14/05 A3027 RMK A01 T01440048  RH  052%=      5-min Rain = 0
KVA1 261505Z 06005KT 14/05 A3027 RMK A01 T01440047  RH  052%=      5-min Rain = 0
KVA1 261506Z 06003KT 14/05 A3027 RMK A01 T01430047  RH  053%=      5-min Rain = 0
KVA1 261507Z 03004KT 14/05 A3027 RMK A01 T01420048  RH  053%=      5-min Rain = 0
KVA1 261508Z 05004KT 14/05 A3026 RMK A01 T01440047  RH  052%=      5-min Rain = 0
KVA1 261509Z 06004KT 15/05 A3026 RMK A01 T01450048  RH  052%=      5-min Rain = 0
KVA1 261510Z 04005KT 15/05 A3026 RMK A01 T01450048  RH  052%=      5-min Rain = 0
KVA1 261511Z 04005KT 15/05 A3026 RMK A01 T01460047  RH  052%=      5-min Rain = 0
KVA1 261512Z 03004KT 15/05 A3026 RMK A01 T01450047  RH  052%=      5-min Rain = 0
KVA1 261513Z 05003KT 15/05 A3027 RMK A01 T01450048  RH  052%=      5-min Rain = 0
KVA1 261514Z 06005KT 15/05 A3027 RMK A01 T01450048  RH  052%=      5-min Rain = 0
KVA1 261515Z 05004KT 15/05 A3027 RMK A01 T01460048  RH  052%=      5-min Rain = 0
KVA1 261516Z 04003KT 15/05 A3027 RMK A01 T01460048  RH  052%=      5-min Rain = 0
KVA1 261517Z 04004KT 15/05 A3027 RMK A01 T01480049  RH  051%=      5-min Rain = 0
KVA1 261518Z 07005KT 15/05 A3027 RMK A01 T01490048  RH  051%=      5-min Rain = 0
KVA1 261519Z 07005KT 15/05 A3027 RMK A01 T01490048  RH  051%=      5-min Rain = 0
KVA1 261520Z 06004KT 15/05 A3027 RMK A01 T01480047  RH  051%=      5-min Rain = 0
KVA1 261521Z 04004KT 15/05 A3027 RMK A01 T01470047  RH  051%=      5-min Rain = 0
KVA1 261522Z 04004KT 15/05 A3027 RMK A01 T01480047  RH  051%=      5-min Rain = 0
KVA1 261523Z 06004KT 15/05 A3027 RMK A01 T01480048  RH  051%=      5-min Rain = 0
KVA1 261524Z 08004KT 15/05 A3027 RMK A01 T01500048  RH  051%=      5-min Rain = 0
KVA1 261525Z 06005KT 15/05 A3027 RMK A01 T01500048  RH  050%=      5-min Rain = 0
KVA1 261526Z 04005KT 15/05 A3027 RMK A01 T01510048  RH  050%=      5-min Rain = 0
KVA1 261527Z 04005KT 15/05 A3027 RMK A01 T01500047  RH  050%=      5-min Rain = 0
KVA1 261528Z 05006KT 15/05 A3027 RMK A01 T01500047  RH  050%=      5-min Rain = 0
KVA1 261529Z 05005KT 15/05 A3027 RMK A01 T01500047  RH  050%=      5-min Rain = 0
KVA1 261530Z 06005KT 15/05 A3027 RMK A01 T01500047  RH  050%=      5-min Rain = 0
KVA1 261531Z 07005KT 15/05 A3027 RMK A01 T01510047  RH  050%=      5-min Rain = 0
KVA1 261532Z 03004KT 15/05 A3027 RMK A01 T01510047  RH  050%=      5-min Rain = 0
KVA1 261533Z 05005KT 15/05 A3027 RMK A01 T01510047  RH  050%=      5-min Rain = 0
KVA1 261534Z 05005KT 15/05 A3027 RMK A01 T01510048  RH  050%=      5-min Rain = 0
KVA1 261535Z 04005KT 15/05 A3027 RMK A01 T01520048  RH  050%=      5-min Rain = 0
KVA1 261536Z 05005KT 15/05 A3027 RMK A01 T01540049  RH  049%=      5-min Rain = 0
KVA1 261537Z 05005KT 16/05 A3027 RMK A01 T01560049  RH  049%=      5-min Rain = 0
KVA1 261538Z 05006KT 16/05 A3027 RMK A01 T01570048  RH  048%=      5-min Rain = 0
KVA1 261539Z 03004KT 16/05 A3027 RMK A01 T01550048  RH  049%=      5-min Rain = 0
KVA1 261540Z 03005KT 15/05 A3027 RMK A01 T01540049  RH  049%=      5-min Rain = 0
KVA1 261541Z 04005KT 16/05 A3027 RMK A01 T01550049  RH  049%=      5-min Rain = 0
KVA1 261542Z 04005KT 16/05 A3027 RMK A01 T01570049  RH  049%=      5-min Rain = 0
KVA1 261543Z 03004KT 16/05 A3027 RMK A01 T01570049  RH  048%=      5-min Rain = 0
KVA1 261544Z 05005KT 16/05 A3027 RMK A01 T01580050  RH  049%=      5-min Rain = 0
KVA1 261545Z 07006KT 16/05 A3027 RMK A01 T01590052  RH  049%=      5-min Rain = 0
KVA1 261546Z 07005KT 16/05 A3027 RMK A01 T01600052  RH  049%=      5-min Rain = 0
KVA1 261547Z 08004KT 16/05 A3027 RMK A01 T01590051  RH  049%=      5-min Rain = 0
KVA1 261548Z 05004KT 16/05 A3027 RMK A01 T01600052  RH  049%=      5-min Rain = 0
KVA1 261549Z 06005KT 16/05 A3027 RMK A01 T01620051  RH  048%=      5-min Rain = 0
KVA1 261550Z 05007KT 16/05 A3027 RMK A01 T01630051  RH  048%=      5-min Rain = 0
KVA1 261551Z 04005KT 16/05 A3027 RMK A01 T01630050  RH  047%=      5-min Rain = 0
KVA1 261552Z 05004KT 16/05 A3027 RMK A01 T01600051  RH  048%=      5-min Rain = 0
KVA1 261553Z 05005KT 16/05 A3027 RMK A01 T01610052  RH  048%=      5-min Rain = 0
KVA1 261554Z 05006KT 16/05 A3027 RMK A01 T01620051  RH  048%=      5-min Rain = 0
KVA1 261555Z 05005KT 16/05 A3027 RMK A01 T01630052  RH  048%=      5-min Rain = 0
KVA1 261556Z 05005KT 16/05 A3027 RMK A01 T01630053  RH  048%=      5-min Rain = 0
KVA1 261557Z 06006KT 16/05 A3027 RMK A01 T01640054  RH  048%=      5-min Rain = 0
KVA1 261558Z 07005KT 16/05 A3027 RMK A01 T01630054  RH  048%=      5-min Rain = 0
KVA1 261559Z 04005KT 16/05 A3027 RMK A01 T01620052  RH  048%=      5-min Rain = 0
KVA1 261600Z 02005KT 16/05 A3027 RMK A01 T01620052  RH  048%=      5-min Rain = 0
KVA1 261601Z 03004KT 16/05 A3027 RMK A01 T01630052  RH  048%=      5-min Rain = 0
KVA1 261602Z 05005KT 17/05 A3027 RMK A01 T01650053  RH  047%=      5-min Rain = 0
KVA1 261603Z 07003KT 17/05 A3027 RMK A01 T01660053  RH  047%=      5-min Rain = 0
KVA1 261604Z 05006KT 17/05 A3027 RMK A01 T01650053  RH  048%=      5-min Rain = 0
KVA1 261605Z 07004KT 17/05 A3027 RMK A01 T01650054  RH  048%=      5-min Rain = 0
KVA1 261606Z 08004KT 16/06 A3027 RMK A01 T01640055  RH  048%=      5-min Rain = 0
KVA1 261607Z 03004KT 17/06 A3027 RMK A01 T01650055  RH  048%=      5-min Rain = 0
KVA1 261608Z 03007KT 17/06 A3027 RMK A01 T01650056  RH  048%=      5-min Rain = 0
KVA1 261609Z 04005KT 17/05 A3027 RMK A01 T01670054  RH  047%=      5-min Rain = 0
KVA1 261610Z 04005KT 17/06 A3027 RMK A01 T01680055  RH  047%=      5-min Rain = 0
KVA1 261611Z 05005KT 17/06 A3027 RMK A01 T01680056  RH  047%=      5-min Rain = 0
KVA1 261612Z 02006KT 17/06 A3027 RMK A01 T01700056  RH  047%=      5-min Rain = 0
KVA1 261613Z 02005KT 17/06 A3027 RMK A01 T01700057  RH  047%=      5-min Rain = 0
KVA1 261614Z 04004KT 17/06 A3027 RMK A01 T01700058  RH  048%=      5-min Rain = 0
KVA1 261615Z 06007KT 17/06 A3027 RMK A01 T01710057  RH  047%=      5-min Rain = 0
KVA1 261616Z 05007KT 17/06 A3027 RMK A01 T01710056  RH  047%=      5-min Rain = 0
KVA1 261617Z 03006KT 17/06 A3027 RMK A01 T01720057  RH  047%=      5-min Rain = 0
KVA1 261618Z 04006KT 17/06 A3027 RMK A01 T01710056  RH  047%=      5-min Rain = 0
KVA1 261619Z 04005KT 17/06 A3027 RMK A01 T01710056  RH  047%=      5-min Rain = 0
KVA1 261620Z 04005KT 17/06 A3027 RMK A01 T01700056  RH  047%=      5-min Rain = 0
KVA1 261621Z 04001KT 17/06 A3027 RMK A01 T01700056  RH  047%=      5-min Rain = 0
KVA1 261622Z 03004KT 17/06 A3027 RMK A01 T01700057  RH  047%=      5-min Rain = 0
KVA1 261623Z 04004KT 17/06 A3027 RMK A01 T01730058  RH  047%=      5-min Rain = 0
KVA1 261624Z 07003KT 17/06 A3027 RMK A01 T01730058  RH  047%=      5-min Rain = 0
KVA1 261625Z 07004KT 17/06 A3027 RMK A01 T01740059  RH  047%=      5-min Rain = 0
KVA1 261626Z 05007KT 18/06 A3027 RMK A01 T01770060  RH  046%=      5-min Rain = 0
KVA1 261627Z 03007KT 18/06 A3027 RMK A01 T01780057  RH  045%=      5-min Rain = 0
KVA1 261628Z 02004KT 18/06 A3027 RMK A01 T01770057  RH  045%=      5-min Rain = 0
KVA1 261629Z 04002KT 17/06 A3027 RMK A01 T01740057  RH  046%=      5-min Rain = 0
KVA1 261630Z 04005KT 17/06 A3027 RMK A01 T01740058  RH  046%=      5-min Rain = 0
KVA1 261631Z 03006KT 18/06 A3027 RMK A01 T01760058  RH  046%=      5-min Rain = 0
KVA1 261632Z 04007KT 18/06 A3027 RMK A01 T01780058  RH  045%=      5-min Rain = 0
KVA1 261633Z 02005KT 18/06 A3027 RMK A01 T01790057  RH  045%=      5-min Rain = 0
KVA1 261634Z 01005KT 18/06 A3027 RMK A01 T01790058  RH  045%=      5-min Rain = 0
KVA1 261635Z 02006KT 18/06 A3027 RMK A01 T01800059  RH  045%=      5-min Rain = 0
KVA1 261636Z 01003KT 18/06 A3027 RMK A01 T01800059  RH  045%=      5-min Rain = 0
KVA1 261637Z 01006KT 18/06 A3027 RMK A01 T01790060  RH  045%=      5-min Rain = 0
KVA1 261638Z 02005KT 18/06 A3027 RMK A01 T01800059  RH  045%=      5-min Rain = 0
KVA1 261639Z 01005KT 18/06 A3027 RMK A01 T01800058  RH  045%=      5-min Rain = 0
KVA1 261640Z 04006KT 18/06 A3027 RMK A01 T01790059  RH  045%=      5-min Rain = 0
KVA1 261641Z 07007KT 18/06 A3027 RMK A01 T01800062  RH  046%=      5-min Rain = 0
KVA1 261642Z 09004KT 18/07 A3027 RMK A01 T01820065  RH  046%=      5-min Rain = 0
KVA1 261643Z 06005KT 18/07 A3027 RMK A01 T01810065  RH  047%=      5-min Rain = 0
KVA1 261644Z 03006KT 18/06 A3027 RMK A01 T01800061  RH  046%=      5-min Rain = 0
KVA1 261645Z 07004KT 18/06 A3027 RMK A01 T01810059  RH  045%=      5-min Rain = 0
KVA1 261646Z 03004KT 18/06 A3027 RMK A01 T01810059  RH  045%=      5-min Rain = 0
KVA1 261647Z 03007KT 18/06 A3027 RMK A01 T01830060  RH  044%=      5-min Rain = 0
KVA1 261648Z 04007KT 19/06 A3027 RMK A01 T01850060  RH  044%=      5-min Rain = 0
KVA1 261649Z 04006KT 18/06 A3027 RMK A01 T01840060  RH  044%=      5-min Rain = 0
KVA1 261650Z 03008KT 18/06 A3027 RMK A01 T01830060  RH  044%=      5-min Rain = 0
KVA1 261651Z 04007KT 18/06 A3027 RMK A01 T01830061  RH  045%=      5-min Rain = 0
KVA1 261652Z 02004KT 19/06 A3027 RMK A01 T01850060  RH  044%=      5-min Rain = 0
KVA1 261653Z 04003KT 19/06 A3027 RMK A01 T01860061  RH  044%=      5-min Rain = 0
KVA1 261654Z 02002KT 19/06 A3027 RMK A01 T01860061  RH  044%=      5-min Rain = 0
KVA1 261655Z 04005KT 19/06 A3027 RMK A01 T01860062  RH  044%=      5-min Rain = 0
KVA1 261656Z 04005KT 19/07 A3026 RMK A01 T01880066  RH  045%=      5-min Rain = 0
KVA1 261657Z 04007KT 19/06 A3026 RMK A01 T01900063  RH  043%=      5-min Rain = 0
KVA1 261658Z 02006KT 19/06 A3026 RMK A01 T01910062  RH  043%=      5-min Rain = 0
KVA1 261659Z 02006KT 19/06 A3026 RMK A01 T01910062  RH  043%=      5-min Rain = 0
KVA1 261700Z 02004KT 19/06 A3026 RMK A01 T01920062  RH  043%=      5-min Rain = 0
KVA1 261701Z 06004KT 19/06 A3026 RMK A01 T01930063  RH  043%=      5-min Rain = 0
KVA1 261702Z 07005KT 19/06 A3026 RMK A01 T01940064  RH  043%=      5-min Rain = 0
KVA1 261703Z 04005KT 19/06 A3026 RMK A01 T01940064  RH  043%=      5-min Rain = 0
KVA1 261704Z 02008KT 20/06 A3026 RMK A01 T01960064  RH  042%=      5-min Rain = 0
KVA1 261705Z 05007KT 20/06 A3026 RMK A01 T01960063  RH  042%=      5-min Rain = 0
KVA1 261706Z 08007KT 20/07 A3026 RMK A01 T01960067  RH  043%=      5-min Rain = 0
KVA1 261707Z 09004KT 19/07 A3026 RMK A01 T01940068  RH  044%=      5-min Rain = 0
KVA1 261708Z 09004KT 19/07 A3026 RMK A01 T01930069  RH  044%=      5-min Rain = 0
KVA1 261709Z 04007KT 20/07 A3026 RMK A01 T01950069  RH  044%=      5-min Rain = 0
KVA1 261710Z 03007KT 20/07 A3026 RMK A01 T01970069  RH  043%=      5-min Rain = 0
KVA1 261711Z 04005KT 20/07 A3025 RMK A01 T01950067  RH  043%=      5-min Rain = 0
KVA1 261712Z 04004G10KT 19/07 A3025 RMK A01 T01940067  RH  044%=      5-min Rain = 0
KVA1 261713Z 05007KT 19/07 A3025 RMK A01 T01930067  RH  044%=      5-min Rain = 0
KVA1 261714Z 05006KT 19/07 A3025 RMK A01 T01940066  RH  043%=      5-min Rain = 0
KVA1 261715Z 06005KT 20/07 A3025 RMK A01 T01950066  RH  043%=      5-min Rain = 0
KVA1 261716Z 06007KT 20/07 A3025 RMK A01 T01980068  RH  043%=      5-min Rain = 0
KVA1 261717Z 06008KT 20/07 A3025 RMK A01 T02010070  RH  043%=      5-min Rain = 0
KVA1 261718Z 07006KT 20/07 A3025 RMK A01 T02000071  RH  043%=      5-min Rain = 0
KVA1 261719Z 07007KT 20/07 A3025 RMK A01 T01990072  RH  044%=      5-min Rain = 0
KVA1 261720Z 06006KT 20/07 A3025 RMK A01 T01990071  RH  043%=      5-min Rain = 0
KVA1 261721Z 04007KT 20/07 A3025 RMK A01 T02000072  RH  043%=      5-min Rain = 0
KVA1 261722Z 04006KT 20/07 A3025 RMK A01 T02020072  RH  043%=      5-min Rain = 0
KVA1 261723Z 06008KT 20/07 A3025 RMK A01 T02020074  RH  043%=      5-min Rain = 0
KVA1 261724Z 06005KT 20/08 A3025 RMK A01 T02010075  RH  044%=      5-min Rain = 0
KVA1 261725Z 07004KT 20/07 A3025 RMK A01 T02000074  RH  044%=      5-min Rain = 0
KVA1 261726Z 06006KT 20/07 A3025 RMK A01 T02000074  RH  044%=      5-min Rain = 0
KVA1 261727Z 07006KT 20/07 A3025 RMK A01 T02040072  RH  043%=      5-min Rain = 0
KVA1 261728Z 03007KT 21/07 A3025 RMK A01 T02050071  RH  042%=      5-min Rain = 0
KVA1 261729Z 05009KT 21/07 A3025 RMK A01 T02060072  RH  042%=      5-min Rain = 0
KVA1 261730Z 05010KT 21/07 A3025 RMK A01 T02080073  RH  042%=      5-min Rain = 0
KVA1 261731Z 04005KT 21/07 A3025 RMK A01 T02080073  RH  042%=      5-min Rain = 0
KVA1 261732Z 03006KT 21/07 A3025 RMK A01 T02060073  RH  042%=      5-min Rain = 0
KVA1 261733Z 04009KT 21/07 A3024 RMK A01 T02060074  RH  042%=      5-min Rain = 0
KVA1 261734Z 03009KT 21/07 A3024 RMK A01 T02050073  RH  042%=      5-min Rain = 0
KVA1 261735Z 03010KT 21/07 A3024 RMK A01 T02070073  RH  042%=      5-min Rain = 0
KVA1 261736Z 03010KT 21/07 A3024 RMK A01 T02080074  RH  042%=      5-min Rain = 0
KVA1 261737Z 04007KT 21/07 A3024 RMK A01 T02080073  RH  042%=      5-min Rain = 0
KVA1 261738Z 04009KT 21/07 A3024 RMK A01 T02080074  RH  042%=      5-min Rain = 0
KVA1 261739Z 03007KT 21/08 A3024 RMK A01 T02080075  RH  042%=      5-min Rain = 0
KVA1 261740Z 05006KT 21/07 A3024 RMK A01 T02080074  RH  042%=      5-min Rain = 0
KVA1 261741Z 04007KT 21/08 A3024 RMK A01 T02080075  RH  042%=      5-min Rain = 0
KVA1 261742Z 04006KT 21/08 A3024 RMK A01 T02090075  RH  042%=      5-min Rain = 0
KVA1 261743Z 02009KT 21/07 A3024 RMK A01 T02100074  RH  041%=      5-min Rain = 0
KVA1 261744Z 04008KT 21/07 A3024 RMK A01 T02110074  RH  041%=      5-min Rain = 0
KVA1 261745Z 02007KT 21/07 A3024 RMK A01 T02130074  RH  041%=      5-min Rain = 0
KVA1 261746Z 02007KT 21/08 A3024 RMK A01 T02130075  RH  041%=      5-min Rain = 0
KVA1 261747Z 03008KT 21/08 A3024 RMK A01 T02140076  RH  041%=      5-min Rain = 0
KVA1 261748Z 04009KT 21/08 A3024 RMK A01 T02140076  RH  041%=      5-min Rain = 0
KVA1 261749Z 03007KT 21/08 A3024 RMK A01 T02130077  RH  042%=      5-min Rain = 0
KVA1 261750Z 03005KT 21/08 A3024 RMK A01 T02110077  RH  042%=      5-min Rain = 0
KVA1 261751Z 03007KT 21/08 A3024 RMK A01 T02130079  RH  042%=      5-min Rain = 0
KVA1 261752Z 05008KT 22/08 A3023 RMK A01 T02150079  RH  041%=      5-min Rain = 0
KVA1 261753Z 03009KT 22/08 A3023 RMK A01 T02160079  RH  041%=      5-min Rain = 0
KVA1 261754Z 05009KT 22/08 A3023 RMK A01 T02180079  RH  041%=      5-min Rain = 0
KVA1 261755Z 06010KT 22/08 A3023 RMK A01 T02190081  RH  041%=      5-min Rain = 0
KVA1 261756Z 05006KT 22/08 A3023 RMK A01 T02180083  RH  042%=      5-min Rain = 0
KVA1 261757Z 05006KT 22/08 A3023 RMK A01 T02170083  RH  042%=      5-min Rain = 0
KVA1 261758Z 01004KT 22/08 A3023 RMK A01 T02160081  RH  042%=      5-min Rain = 0
KVA1 261759Z 05005KT 22/08 A3023 RMK A01 T02160082  RH  042%=      5-min Rain = 0
KVA1 261800Z 04006KT 22/08 A3023 RMK A01 T02180081  RH  041%=      5-min Rain = 0
KVA1 261801Z 04006KT 22/08 A3023 RMK A01 T02200081  RH  041%=      5-min Rain = 0
KVA1 261802Z 04009KT 22/08 A3023 RMK A01 T02200080  RH  040%=      5-min Rain = 0
KVA1 261803Z 05009KT 22/08 A3023 RMK A01 T02200080  RH  041%=      5-min Rain = 0
KVA1 261804Z 03007KT 22/08 A3023 RMK A01 T02200081  RH  041%=      5-min Rain = 0
KVA1 261805Z 04007KT 22/08 A3023 RMK A01 T02220081  RH  040%=      5-min Rain = 0
KVA1 261806Z 09008KT 22/08 A3023 RMK A01 T02200082  RH  041%=      5-min Rain = 0
KVA1 261807Z 10009KT 22/09 A3023 RMK A01 T02210087  RH  042%=      5-min Rain = 0
KVA1 261808Z 13006KT 22/09 A3023 RMK A01 T02230088  RH  042%=      5-min Rain = 0
KVA1 261809Z 05005KT 22/09 A3023 RMK A01 T02240088  RH  042%=      5-min Rain = 0
KVA1 261810Z 07006KT 23/09 A3023 RMK A01 T02250087  RH  041%=      5-min Rain = 0
KVA1 261811Z 07010KT 23/09 A3023 RMK A01 T02250088  RH  041%=      5-min Rain = 0
KVA1 261812Z 06010KT 23/09 A3023 RMK A01 T02270087  RH  041%=      5-min Rain = 0
KVA1 261813Z 07009KT 23/09 A3022 RMK A01 T02270086  RH  040%=      5-min Rain = 0
KVA1 261814Z 08008KT 23/09 A3022 RMK A01 T02300092  RH  041%=      5-min Rain = 0
KVA1 261815Z 08008KT 23/09 A3022 RMK A01 T02300094  RH  042%=      5-min Rain = 0
KVA1 261816Z 08005KT 23/09 A3022 RMK A01 T02290094  RH  042%=      5-min Rain = 0
KVA1 261817Z 05006KT 23/09 A3022 RMK A01 T02300088  RH  040%=      5-min Rain = 0
KVA1 261818Z 04003KT 23/09 A3022 RMK A01 T02300089  RH  040%=      5-min Rain = 0
KVA1 261819Z 15001KT 23/09 A3022 RMK A01 T02260088  RH  041%=      5-min Rain = 0
KVA1 261820Z 11002G10KT 23/09 A3022 RMK A01 T02250089  RH  042%=      5-min Rain = 0
KVA1 261821Z 10006KT 23/09 A3022 RMK A01 T02250091  RH  043%=      5-min Rain = 0
KVA1 261822Z 09005KT 23/09 A3022 RMK A01 T02260093  RH  043%=      5-min Rain = 0
KVA1 261823Z 08006KT 23/09 A3022 RMK A01 T02250094  RH  043%=      5-min Rain = 0
KVA1 261824Z 08004KT 22/09 A3022 RMK A01 T02240093  RH  043%=      5-min Rain = 0
KVA1 261825Z 08009KT 23/09 A3022 RMK A01 T02270093  RH  043%=      5-min Rain = 0
KVA1 261826Z 09010KT 23/09 A3022 RMK A01 T02300092  RH  042%=      5-min Rain = 0
KVA1 261827Z 10009KT 23/09 A3022 RMK A01 T02320093  RH  041%=      5-min Rain = 0
KVA1 261828Z 09007KT 23/09 A3022 RMK A01 T02320092  RH  041%=      5-min Rain = 0
KVA1 261829Z 09006KT 23/09 A3022 RMK A01 T02300093  RH  042%=      5-min Rain = 0
KVA1 261830Z 08012KT 23/09 A3022 RMK A01 T02310093  RH  041%=      5-min Rain = 0
KVA1 261831Z 08009KT 23/09 A3022 RMK A01 T02320092  RH  041%=      5-min Rain = 0
KVA1 261832Z 09009KT 23/09 A3022 RMK A01 T02320093  RH  041%=      5-min Rain = 0
KVA1 261833Z 08011KT 23/10 A3021 RMK A01 T02340095  RH  041%=      5-min Rain = 0
KVA1 261834Z 08008KT 24/09 A3021 RMK A01 T02360094  RH  040%=      5-min Rain = 0
KVA1 261835Z 07006KT 24/10 A3021 RMK A01 T02370095  RH  040%=      5-min Rain = 0
KVA1 261836Z 07008KT 24/10 A3021 RMK A01 T02380095  RH  040%=      5-min Rain = 0
KVA1 261837Z 06008KT 24/10 A3021 RMK A01 T02390096  RH  040%=      5-min Rain = 0
KVA1 261838Z 08008KT 24/10 A3021 RMK A01 T02420097  RH  040%=      5-min Rain = 0
KVA1 261839Z 10008KT 24/10 A3021 RMK A01 T02440096  RH  039%=      5-min Rain = 0
KVA1 261840Z 10006KT 24/10 A3021 RMK A01 T02410096  RH  040%=      5-min Rain = 0
KVA1 261841Z 12010KT 24/10 A3021 RMK A01 T02380095  RH  040%=      5-min Rain = 0
KVA1 261842Z 12003KT 24/10 A3021 RMK A01 T02360095  RH  041%=      5-min Rain = 0
KVA1 261843Z 08006G12KT 24/10 A3021 RMK A01 T02350095  RH  041%=      5-min Rain = 0
KVA1 261844Z 09010KT 24/09 A3021 RMK A01 T02360094  RH  041%=      5-min Rain = 0
KVA1 261845Z 08011KT 24/10 A302 RMK A01 T02370095  RH  041%=      5-min Rain = 0
KVA1 261846Z 09007KT 24/10 A302 RMK A01 T02370095  RH  040%=      5-min Rain = 0
KVA1 261847Z 07006KT 24/10 A302 RMK A01 T02370095  RH  041%=      5-min Rain = 0
KVA1 261848Z 07008KT 24/10 A302 RMK A01 T02390096  RH  040%=      5-min Rain = 0
KVA1 261849Z 07010KT 24/10 A302 RMK A01 T02420095  RH  039%=      5-min Rain = 0
KVA1 261850Z 09008KT 24/10 A302 RMK A01 T02410095  RH  040%=      5-min Rain = 0
KVA1 261851Z 07009KT 24/10 A302 RMK A01 T02420096  RH  039%=      5-min Rain = 0
KVA1 261852Z 05005KT 24/09 A302 RMK A01 T02400094  RH  039%=      5-min Rain = 0
KVA1 261853Z 07005KT 24/09 A302 RMK A01 T02370094  RH  040%=      5-min Rain = 0
KVA1 261854Z 03008KT 24/10 A302 RMK A01 T02380096  RH  040%=      5-min Rain = 0
KVA1 261855Z 06007KT 24/10 A302 RMK A01 T02420096  RH  039%=      5-min Rain = 0
KVA1 261856Z 09010KT 25/10 A302 RMK A01 T02460099  RH  039%=      5-min Rain = 0
KVA1 261857Z 11007KT 25/10 A302 RMK A01 T02470099  RH  039%=      5-min Rain = 0
KVA1 261858Z 10009KT 25/10 A302 RMK A01 T02500100  RH  039%=      5-min Rain = 0
KVA1 261859Z 09011KT 25/10 A302 RMK A01 T02520098  RH  038%=      5-min Rain = 0
KVA1 261900Z 08007KT 25/10 A302 RMK A01 T02510097  RH  038%=      5-min Rain = 0
KVA1 261901Z 12007KT 25/10 A302 RMK A01 T02490097  RH  038%=      5-min Rain = 0
KVA1 261902Z 10006KT 25/10 A3019 RMK A01 T02480097  RH  038%=      5-min Rain = 0
KVA1 261903Z 11005KT 25/10 A3019 RMK A01 T02470097  RH  038%=      5-min Rain = 0
KVA1 261904Z 10009KT 25/10 A3019 RMK A01 T02490098  RH  038%=      5-min Rain = 0
KVA1 261905Z 08007KT 25/10 A3019 RMK A01 T02500098  RH  038%=      5-min Rain = 0
KVA1 261906Z 08008KT 25/10 A3019 RMK A01 T02510097  RH  038%=      5-min Rain = 0
KVA1 261907Z 08011KT 25/10 A3019 RMK A01 T02500098  RH  038%=      5-min Rain = 0
KVA1 261908Z 09013KT 25/10 A3019 RMK A01 T02520099  RH  038%=      5-min Rain = 0
KVA1 261909Z 10012KT 25/10 A3019 RMK A01 T02510098  RH  038%=      5-min Rain = 0
KVA1 261910Z 08010KT 25/10 A3019 RMK A01 T02490097  RH  038%=      5-min Rain = 0
KVA1 261911Z 10006KT 25/10 A3019 RMK A01 T02490098  RH  038%=      5-min Rain = 0
KVA1 261912Z 10009KT 25/10 A3019 RMK A01 T02500098  RH  038%=      5-min Rain = 0
KVA1 261913Z 07007KT 25/10 A3019 RMK A01 T02490098  RH  038%=      5-min Rain = 0
KVA1 261914Z 08011KT 25/10 A3019 RMK A01 T02480097  RH  038%=      5-min Rain = 0
KVA1 261915Z 07009KT 25/10 A3019 RMK A01 T02460096  RH  039%=      5-min Rain = 0
KVA1 261916Z 05006KT 24/10 A3019 RMK A01 T02420095  RH  039%=      5-min Rain = 0
KVA1 261917Z 03003KT 24/10 A3019 RMK A01 T02420096  RH  040%=      5-min Rain = 0
KVA1 261918Z 14007KT 24/10 A3018 RMK A01 T02430097  RH  040%=      5-min Rain = 0
KVA1 261919Z 13007KT 24/10 A3019 RMK A01 T02440098  RH  040%=      5-min Rain = 0
KVA1 261920Z 10011KT 25/10 A3019 RMK A01 T02450098  RH  039%=      5-min Rain = 0
KVA1 261921Z 10008G13KT 25/10 A3019 RMK A01 T02480095  RH  038%=      5-min Rain = 0
KVA1 261922Z 10011KT 25/10 A3019 RMK A01 T02470095  RH  038%=      5-min Rain = 0
KVA1 261923Z 10008KT 25/10 A3019 RMK A01 T02460096  RH  039%=      5-min Rain = 0
KVA1 261924Z 10007KT 25/10 A3019 RMK A01 T02470096  RH  039%=      5-min Rain = 0
KVA1 261925Z 09006KT 25/10 A3018 RMK A01 T02460096  RH  038%=      5-min Rain = 0
KVA1 261926Z 07009KT 25/10 A3018 RMK A01 T02450095  RH  039%=      5-min Rain = 0
KVA1 261927Z 07008G13KT 24/09 A3019 RMK A01 T02440094  RH  039%=      5-min Rain = 0
KVA1 261928Z 06008KT 24/09 A3019 RMK A01 T02410094  RH  039%=      5-min Rain = 0
KVA1 261929Z 06005KT 24/09 A3019 RMK A01 T02380093  RH  040%=      5-min Rain = 0
KVA1 261930Z 08006KT 24/09 A3019 RMK A01 T02370094  RH  040%=      5-min Rain = 0
KVA1 261931Z 08009KT 24/09 A3018 RMK A01 T02400094  RH  040%=      5-min Rain = 0
KVA1 261932Z 09010KT 24/10 A3018 RMK A01 T02440095  RH  039%=      5-min Rain = 0
KVA1 261933Z 09007KT 25/09 A3018 RMK A01 T02450094  RH  038%=      5-min Rain = 0
KVA1 261934Z 10003KT 24/09 A3018 RMK A01 T02430093  RH  039%=      5-min Rain = 0
KVA1 261935Z 08004KT 24/09 A3018 RMK A01 T02420094  RH  039%=      5-min Rain = 0
KVA1 261936Z 09008KT 24/09 A3018 RMK A01 T02430094  RH  039%=      5-min Rain = 0
KVA1 261937Z 08011KT 24/09 A3018 RMK A01 T02440094  RH  039%=      5-min Rain = 0
KVA1 261938Z 08006KT 25/09 A3018 RMK A01 T02450094  RH  038%=      5-min Rain = 0
KVA1 261939Z 09007KT 25/09 A3018 RMK A01 T02460094  RH  038%=      5-min Rain = 0
KVA1 261940Z 09007KT 25/10 A3018 RMK A01 T02460095  RH  038%=      5-min Rain = 0
KVA1 261941Z 09011KT 25/10 A3017 RMK A01 T02450095  RH  039%=      5-min Rain = 0
KVA1 261942Z 10011KT 24/09 A3017 RMK A01 T02430094  RH  039%=      5-min Rain = 0
KVA1 261943Z 10012KT 24/10 A3017 RMK A01 T02430095  RH  039%=      5-min Rain = 0
KVA1 261944Z 10009KT 24/10 A3017 RMK A01 T02430095  RH  039%=      5-min Rain = 0
KVA1 261945Z 11008KT 24/10 A3017 RMK A01 T02430095  RH  039%=      5-min Rain = 0
KVA1 261946Z 11008KT 24/10 A3017 RMK A01 T02430095  RH  039%=      5-min Rain = 0
KVA1 261947Z 10009KT 24/09 A3017 RMK A01 T02420094  RH  039%=      5-min Rain = 0
KVA1 261948Z 11011KT 24/09 A3017 RMK A01 T02420092  RH  038%=      5-min Rain = 0
KVA1 261949Z 09012KT 24/09 A3017 RMK A01 T02430092  RH  038%=      5-min Rain = 0
KVA1 261950Z 08008KT 24/09 A3017 RMK A01 T02430092  RH  038%=      5-min Rain = 0
KVA1 261951Z 08007G12KT 24/09 A3017 RMK A01 T02420092  RH  038%=      5-min Rain = 0
KVA1 261952Z 10012KT 24/09 A3017 RMK A01 T02430092  RH  038%=      5-min Rain = 0
KVA1 261953Z 12010KT 24/09 A3017 RMK A01 T02440092  RH  038%=      5-min Rain = 0
KVA1 261954Z 12007KT 25/09 A3017 RMK A01 T02450091  RH  038%=      5-min Rain = 0
KVA1 261955Z 11006KT 25/09 A3017 RMK A01 T02450092  RH  038%=      5-min Rain = 0
KVA1 261956Z 09009KT 24/09 A3017 RMK A01 T02440091  RH  038%=      5-min Rain = 0
KVA1 261957Z 07009KT 25/09 A3017 RMK A01 T02450090  RH  037%=      5-min Rain = 0
KVA1 261958Z 07010G16KT 25/09 A3017 RMK A01 T02460089  RH  037%=      5-min Rain = 0
KVA1 261959Z 06007KT 24/09 A3017 RMK A01 T02440090  RH  037%=      5-min Rain = 0
KVA1 262000Z 10008KT 25/09 A3017 RMK A01 T02450091  RH  037%=      5-min Rain = 0
KVA1 262001Z 12011KT 25/09 A3017 RMK A01 T02470091  RH  037%=      5-min Rain = 0
KVA1 262002Z 10012KT 25/09 A3017 RMK A01 T02470090  RH  037%=      5-min Rain = 0
KVA1 262003Z 10009KT 25/09 A3017 RMK A01 T02470091  RH  037%=      5-min Rain = 0
KVA1 262004Z 10010KT 25/09 A3017 RMK A01 T02470092  RH  037%=      5-min Rain = 0
KVA1 262005Z 09009KT 25/09 A3017 RMK A01 T02470091  RH  037%=      5-min Rain = 0
KVA1 262006Z 09011KT 25/09 A3017 RMK A01 T02470090  RH  037%=      5-min Rain = 0
KVA1 262007Z 10013KT 25/09 A3017 RMK A01 T02460089  RH  037%=      5-min Rain = 0
KVA1 262008Z 10012KT 25/09 A3017 RMK A01 T02460089  RH  037%=      5-min Rain = 0
KVA1 262009Z 12008KT 25/09 A3017 RMK A01 T02460089  RH  037%=      5-min Rain = 0
KVA1 262010Z 11008KT 24/09 A3017 RMK A01 T02440089  RH  037%=      5-min Rain = 0
KVA1 262011Z 09010G15KT 24/09 A3017 RMK A01 T02430089  RH  037%=      5-min Rain = 0
KVA1 262012Z 08010G15KT 24/09 A3016 RMK A01 T02430089  RH  037%=      5-min Rain = 0
KVA1 262013Z 08012KT 25/09 A3016 RMK A01 T02460089  RH  037%=      5-min Rain = 0
KVA1 262014Z 08009KT 25/09 A3017 RMK A01 T02460088  RH  037%=      5-min Rain = 0
KVA1 262015Z 09010KT 24/09 A3016 RMK A01 T02440088  RH  037%=      5-min Rain = 0
KVA1 262016Z 09009KT 24/09 A3016 RMK A01 T02420088  RH  037%=      5-min Rain = 0
KVA1 262017Z 08008KT 24/09 A3016 RMK A01 T02420088  RH  038%=      5-min Rain = 0
KVA1 262018Z 07009KT 24/09 A3016 RMK A01 T02440088  RH  037%=      5-min Rain = 0
KVA1 262019Z 08009KT 25/09 A3016 RMK A01 T02450088  RH  037%=      5-min Rain = 0
KVA1 262020Z 09010KT 25/09 A3016 RMK A01 T02470089  RH  036%=      5-min Rain = 0
KVA1 262021Z 10009KT 25/09 A3016 RMK A01 T02510089  RH  036%=      5-min Rain = 0
KVA1 262022Z 10010KT 25/09 A3016 RMK A01 T02530089  RH  035%=      5-min Rain = 0
KVA1 262023Z 10011KT 26/09 A3016 RMK A01 T02560090  RH  035%=      5-min Rain = 0
KVA1 262024Z 09009KT 26/09 A3016 RMK A01 T02560089  RH  035%=      5-min Rain = 0
KVA1 262025Z 08010KT 26/09 A3015 RMK A01 T02570090  RH  035%=      5-min Rain = 0
KVA1 262026Z 10013KT 26/09 A3015 RMK A01 T02550089  RH  035%=      5-min Rain = 0
KVA1 262027Z 11010KT 25/09 A3015 RMK A01 T02530088  RH  035%=      5-min Rain = 0
KVA1 262028Z 09010KT 25/09 A3015 RMK A01 T02520090  RH  036%=      5-min Rain = 0
KVA1 262029Z 09012KT 25/09 A3015 RMK A01 T02540089  RH  035%=      5-min Rain = 0
KVA1 262030Z 09009KT 25/09 A3015 RMK A01 T02510089  RH  036%=      5-min Rain = 0
KVA1 262031Z 10010KT 25/09 A3015 RMK A01 T02490089  RH  036%=      5-min Rain = 0
KVA1 262032Z 11012KT 25/09 A3015 RMK A01 T02490088  RH  036%=      5-min Rain = 0
KVA1 262033Z 08009KT 25/09 A3015 RMK A01 T02480088  RH  036%=      5-min Rain = 0
KVA1 262034Z 08009KT 25/09 A3015 RMK A01 T02500089  RH  036%=      5-min Rain = 0
KVA1 262035Z 09010G15KT 25/09 A3014 RMK A01 T02490088  RH  036%=      5-min Rain = 0
KVA1 262036Z 09013KT 25/09 A3014 RMK A01 T02480088  RH  036%=      5-min Rain = 0
KVA1 262037Z 09010KT 25/09 A3014 RMK A01 T02490088  RH  036%=      5-min Rain = 0
KVA1 262038Z 07010KT 25/09 A3014 RMK A01 T02510088  RH  036%=      5-min Rain = 0
KVA1 262039Z 08009KT 25/09 A3014 RMK A01 T02510088  RH  036%=      5-min Rain = 0
KVA1 262040Z 07008KT 25/09 A3014 RMK A01 T02500088  RH  036%=      5-min Rain = 0
KVA1 262041Z 09009G14KT 25/09 A3014 RMK A01 T02510089  RH  036%=      5-min Rain = 0
KVA1 262042Z 09010KT 26/09 A3014 RMK A01 T02560089  RH  035%=      5-min Rain = 0
KVA1 262043Z 08009KT 26/09 A3014 RMK A01 T02560089  RH  035%=      5-min Rain = 0
KVA1 262044Z 08010KT 26/09 A3014 RMK A01 T02560089  RH  035%=      5-min Rain = 0
KVA1 262045Z 09011KT 26/09 A3014 RMK A01 T02550089  RH  035%=      5-min Rain = 0
KVA1 262046Z 10012KT 25/09 A3014 RMK A01 T02530088  RH  035%=      5-min Rain = 0
KVA1 262047Z 13010KT 25/09 A3014 RMK A01 T02530088  RH  035%=      5-min Rain = 0
KVA1 262048Z 10008KT 25/09 A3014 RMK A01 T02530089  RH  035%=      5-min Rain = 0
KVA1 262049Z 10009KT 26/09 A3014 RMK A01 T02560089  RH  035%=      5-min Rain = 0
KVA1 262050Z 09010KT 26/09 A3014 RMK A01 T02550089  RH  035%=      5-min Rain = 0
KVA1 262051Z 11009KT 25/09 A3014 RMK A01 T02540089  RH  035%=      5-min Rain = 0
KVA1 262052Z 11007G12KT 25/09 A3014 RMK A01 T02540088  RH  035%=      5-min Rain = 0
KVA1 262053Z 12012KT 26/09 A3014 RMK A01 T02570089  RH  035%=      5-min Rain = 0
KVA1 262054Z 12012KT 26/09 A3014 RMK A01 T02580088  RH  034%=      5-min Rain = 0
KVA1 262055Z 11010KT 26/09 A3014 RMK A01 T02580088  RH  034%=      5-min Rain = 0
KVA1 262056Z 11006KT 26/09 A3014 RMK A01 T02570089  RH  034%=      5-min Rain = 0
KVA1 262057Z 11003KT 26/09 A3014 RMK A01 T02560089  RH  035%=      5-min Rain = 0
KVA1 262058Z 12008KT 25/09 A3014 RMK A01 T02540089  RH  035%=      5-min Rain = 0
KVA1 262059Z 10009KT 26/09 A3014 RMK A01 T02560090  RH  035%=      5-min Rain = 0
KVA1 262100Z 09012KT 26/09 A3014 RMK A01 T02580089  RH  034%=      5-min Rain = 0
KVA1 262101Z 09009G14KT 26/09 A3014 RMK A01 T02560088  RH  035%=      5-min Rain = 0
KVA1 262102Z 10009KT 25/09 A3014 RMK A01 T02540088  RH  035%=      5-min Rain = 0
KVA1 262103Z 10007KT 25/09 A3014 RMK A01 T02510087  RH  035%=      5-min Rain = 0
KVA1 262104Z 09008KT 25/09 A3014 RMK A01 T02490087  RH  036%=      5-min Rain = 0
KVA1 262105Z 06009KT 25/09 A3014 RMK A01 T02490087  RH  036%=      5-min Rain = 0
KVA1 262106Z 07008KT 25/09 A3013 RMK A01 T02480087  RH  036%=      5-min Rain = 0
KVA1 262107Z 08007KT 25/09 A3013 RMK A01 T02500088  RH  036%=      5-min Rain = 0
KVA1 262108Z 08010KT 25/09 A3013 RMK A01 T02540089  RH  035%=      5-min Rain = 0
KVA1 262109Z 08008KT 25/09 A3013 RMK A01 T02540089  RH  035%=      5-min Rain = 0
KVA1 262110Z 08011KT 26/09 A3013 RMK A01 T02550088  RH  035%=      5-min Rain = 0
KVA1 262111Z 07011KT 25/09 A3013 RMK A01 T02540088  RH  035%=      5-min Rain = 0
KVA1 262112Z 07007KT 25/09 A3013 RMK A01 T02520088  RH  035%=      5-min Rain = 0
KVA1 262113Z 09007KT 25/09 A3013 RMK A01 T02510088  RH  035%=      5-min Rain = 0
KVA1 262114Z 08007KT 25/09 A3013 RMK A01 T02530088  RH  035%=      5-min Rain = 0
KVA1 262115Z 09009KT 25/09 A3013 RMK A01 T02540088  RH  035%=      5-min Rain = 0
KVA1 262116Z 09013KT 25/09 A3013 RMK A01 T02540088  RH  035%=      5-min Rain = 0
KVA1 262117Z 09011KT 25/09 A3013 RMK A01 T02530088  RH  035%=      5-min Rain = 0
KVA1 262118Z 09009KT 25/09 A3013 RMK A01 T02520087  RH  035%=      5-min Rain = 0
KVA1 262119Z 09011KT 25/09 A3013 RMK A01 T02530087  RH  035%=      5-min Rain = 0
KVA1 262120Z 09008KT 25/09 A3013 RMK A01 T02540087  RH  035%=      5-min Rain = 0
KVA1 262121Z 11006KT 25/09 A3013 RMK A01 T02530088  RH  035%=      5-min Rain = 0
KVA1 262122Z 07007KT 25/09 A3013 RMK A01 T02540088  RH  035%=      5-min Rain = 0
KVA1 262123Z 07010KT 26/09 A3013 RMK A01 T02560088  RH  034%=      5-min Rain = 0
KVA1 262124Z 08011KT 26/09 A3013 RMK A01 T02560088  RH  034%=      5-min Rain = 0
KVA1 262125Z 10011KT 26/09 A3013 RMK A01 T02560089  RH  035%=      5-min Rain = 0
KVA1 262126Z 10013KT 26/09 A3013 RMK A01 T02560088  RH  034%=      5-min Rain = 0
KVA1 262127Z 09010KT 26/09 A3013 RMK A01 T02550088  RH  035%=      5-min Rain = 0
KVA1 262128Z 09006KT 25/09 A3012 RMK A01 T02540088  RH  035%=      5-min Rain = 0
KVA1 262129Z 09008KT 25/09 A3012 RMK A01 T02540089  RH  035%=      5-min Rain = 0
KVA1 262130Z 09008KT 25/09 A3013 RMK A01 T02540089  RH  035%=      5-min Rain = 0
KVA1 262131Z 08010KT 25/09 A3012 RMK A01 T02540089  RH  035%=      5-min Rain = 0
KVA1 262132Z 09008KT 26/09 A3012 RMK A01 T02550089  RH  035%=      5-min Rain = 0
KVA1 262133Z 09009KT 26/09 A3013 RMK A01 T02560089  RH  035%=      5-min Rain = 0
KVA1 262134Z 09008KT 26/09 A3012 RMK A01 T02560089  RH  035%=      5-min Rain = 0
KVA1 262135Z 10007KT 26/09 A3012 RMK A01 T02550089  RH  035%=      5-min Rain = 0
KVA1 262136Z 11008KT 25/09 A3012 RMK A01 T02540089  RH  035%=      5-min Rain = 0
KVA1 262137Z 13009KT 26/09 A3012 RMK A01 T02560089  RH  035%=      5-min Rain = 0
KVA1 262138Z 14007KT 26/09 A3012 RMK A01 T02560089  RH  035%=      5-min Rain = 0
KVA1 262139Z 13007KT 26/09 A3012 RMK A01 T02550089  RH  035%=      5-min Rain = 0
KVA1 262140Z 12008KT 25/09 A3012 RMK A01 T02540089  RH  035%=      5-min Rain = 0
KVA1 262141Z 13008KT 25/09 A3012 RMK A01 T02540088  RH  035%=      5-min Rain = 0
KVA1 262142Z 11011KT 25/09 A3012 RMK A01 T02540088  RH  035%=      5-min Rain = 0
KVA1 262143Z 11011KT 26/09 A3012 RMK A01 T02550088  RH  035%=      5-min Rain = 0
KVA1 262144Z 10009KT 26/09 A3012 RMK A01 T02550088  RH  035%=      5-min Rain = 0
KVA1 262145Z 09009KT 25/09 A3012 RMK A01 T02540088  RH  035%=      5-min Rain = 0
KVA1 262146Z 09010KT 26/09 A3012 RMK A01 T02550089  RH  035%=      5-min Rain = 0
KVA1 262147Z 07010KT 26/09 A3012 RMK A01 T02560089  RH  035%=      5-min Rain = 0
KVA1 262148Z 06008KT 26/09 A3012 RMK A01 T02560089  RH  035%=      5-min Rain = 0
KVA1 262149Z 06009KT 26/09 A3012 RMK A01 T02550089  RH  035%=      5-min Rain = 0
KVA1 262150Z 07008KT 26/09 A3012 RMK A01 T02550089  RH  035%=      5-min Rain = 0
KVA1 262151Z 08009KT 26/09 A3011 RMK A01 T02550090  RH  035%=      5-min Rain = 0
KVA1 262152Z 08012KT 26/09 A3011 RMK A01 T02550090  RH  035%=      5-min Rain = 0
KVA1 262153Z 09009KT 26/09 A3011 RMK A01 T02550090  RH  035%=      5-min Rain = 0
KVA1 262154Z 09008KT 25/09 A3011 RMK A01 T02540090  RH  035%=      5-min Rain = 0
KVA1 262155Z 09009KT 25/09 A3011 RMK A01 T02540090  RH  035%=      5-min Rain = 0
KVA1 262156Z 07007KT 25/09 A3011 RMK A01 T02540090  RH  035%=      5-min Rain = 0
KVA1 262157Z 06009KT 25/09 A3011 RMK A01 T02540089  RH  035%=      5-min Rain = 0
KVA1 262158Z 07008KT 26/09 A3011 RMK A01 T02550089  RH  035%=      5-min Rain = 0
KVA1 262159Z 08006KT 25/09 A3011 RMK A01 T02540090  RH  035%=      5-min Rain = 0
KVA1 262200Z 08009KT 25/09 A3011 RMK A01 T02540091  RH  036%=      5-min Rain = 0
KVA1 262201Z 09011KT 26/09 A3011 RMK A01 T02550090  RH  035%=      5-min Rain = 0
KVA1 262202Z 10008KT 26/09 A3011 RMK A01 T02560090  RH  035%=      5-min Rain = 0
KVA1 262203Z 08009G15KT 26/09 A3011 RMK A01 T02560090  RH  035%=      5-min Rain = 0
KVA1 262204Z 07011KT 26/09 A3011 RMK A01 T02570090  RH  035%=      5-min Rain = 0
KVA1 262205Z 08007KT 26/09 A3011 RMK A01 T02560089  RH  035%=      5-min Rain = 0
KVA1 262206Z 08004KT 25/09 A3011 RMK A01 T02540089  RH  035%=      5-min Rain = 0
KVA1 262207Z 05006KT 25/09 A3011 RMK A01 T02530090  RH  035%=      5-min Rain = 0
KVA1 262208Z 07006KT 25/09 A3011 RMK A01 T02540089  RH  035%=      5-min Rain = 0
KVA1 262209Z 06009G15KT 26/09 A3011 RMK A01 T02550089  RH  035%=      5-min Rain = 0
KVA1 262210Z 09015KT 26/09 A3011 RMK A01 T02560090  RH  035%=      5-min Rain = 0
KVA1 262211Z 09010KT 26/09 A3011 RMK A01 T02560089  RH  035%=      5-min Rain = 0
KVA1 262212Z 09009KT 26/09 A3011 RMK A01 T02560089  RH  035%=      5-min Rain = 0
KVA1 262213Z 09006KT 26/09 A3011 RMK A01 T02560090  RH  035%=      5-min Rain = 0
KVA1 262214Z 09007KT 26/09 A3011 RMK A01 T02550089  RH  035%=      5-min Rain = 0
KVA1 262215Z 09006KT 26/09 A3011 RMK A01 T02550089  RH  035%=      5-min Rain = 0
KVA1 262216Z 08007KT 26/09 A3011 RMK A01 T02570089  RH  035%=      5-min Rain = 0
KVA1 262217Z 07006KT 26/09 A3011 RMK A01 T02590090  RH  034%=      5-min Rain = 0
KVA1 262218Z 07008KT 26/09 A3011 RMK A01 T02610090  RH  034%=      5-min Rain = 0
KVA1 262219Z 07011KT 26/09 A3011 RMK A01 T02630090  RH  034%=      5-min Rain = 0
KVA1 262220Z 07010KT 26/09 A3011 RMK A01 T02630090  RH  033%=      5-min Rain = 0
KVA1 262221Z 07009KT 26/09 A3011 RMK A01 T02620090  RH  034%=      5-min Rain = 0
KVA1 262222Z 06008KT 26/09 A3011 RMK A01 T02610090  RH  034%=      5-min Rain = 0
KVA1 262223Z 08013KT 26/09 A301 RMK A01 T02590091  RH  034%=      5-min Rain = 0
KVA1 262224Z 08010KT 26/09 A3011 RMK A01 T02580091  RH  035%=      5-min Rain = 0
KVA1 262225Z 07007G12KT 26/09 A3011 RMK A01 T02570091  RH  035%=      5-min Rain = 0
KVA1 262226Z 08011KT 26/09 A3011 RMK A01 T02570091  RH  035%=      5-min Rain = 0
KVA1 262227Z 08009KT 26/09 A3011 RMK A01 T02570091  RH  035%=      5-min Rain = 0
KVA1 262228Z 09006KT 26/09 A3011 RMK A01 T02560091  RH  035%=      5-min Rain = 0
KVA1 262229Z 10007KT 26/09 A3011 RMK A01 T02560091  RH  035%=      5-min Rain = 0
KVA1 262230Z 08012KT 26/09 A3011 RMK A01 T02570091  RH  035%=      5-min Rain = 0
KVA1 262231Z 07008KT 26/09 A3011 RMK A01 T02580091  RH  035%=      5-min Rain = 0
KVA1 262232Z 08007KT 26/09 A301 RMK A01 T02580091  RH  035%=      5-min Rain = 0
KVA1 262233Z 08008KT 26/09 A301 RMK A01 T02580091  RH  035%=      5-min Rain = 0
KVA1 262234Z 07008KT 26/09 A301 RMK A01 T02580091  RH  035%=      5-min Rain = 0
KVA1 262235Z 09008KT 26/09 A301 RMK A01 T02590091  RH  035%=      5-min Rain = 0
KVA1 262236Z 08010G15KT 26/09 A301 RMK A01 T02590091  RH  035%=      5-min Rain = 0
KVA1 262237Z 09011KT 26/09 A301 RMK A01 T02580091  RH  035%=      5-min Rain = 0
KVA1 262238Z 08010KT 26/09 A301 RMK A01 T02580092  RH  035%=      5-min Rain = 0
KVA1 262239Z 08011KT 26/09 A301 RMK A01 T02570092  RH  035%=      5-min Rain = 0
KVA1 262240Z 09010KT 26/09 A301 RMK A01 T02570093  RH  035%=      5-min Rain = 0
KVA1 262241Z 09008KT 26/09 A301 RMK A01 T02560093  RH  035%=      5-min Rain = 0
KVA1 262242Z 07008KT 26/09 A301 RMK A01 T02570093  RH  035%=      5-min Rain = 0
KVA1 262243Z 08009KT 26/09 A301 RMK A01 T02600093  RH  035%=      5-min Rain = 0
KVA1 262244Z 07009KT 26/09 A3009 RMK A01 T02610093  RH  035%=      5-min Rain = 0
KVA1 262245Z 08007KT 26/09 A3009 RMK A01 T02610093  RH  035%=      5-min Rain = 0
KVA1 262246Z 06007KT 26/09 A3009 RMK A01 T02620093  RH  034%=      5-min Rain = 0
KVA1 262247Z 05009KT 26/09 A3009 RMK A01 T02620093  RH  034%=      5-min Rain = 0
KVA1 262248Z 06010KT 26/09 A3009 RMK A01 T02620093  RH  035%=      5-min Rain = 0
KVA1 262249Z 06010KT 26/09 A3009 RMK A01 T02620093  RH  035%=      5-min Rain = 0
KVA1 262250Z 06010KT 26/09 A3009 RMK A01 T02620093  RH  035%=      5-min Rain = 0
KVA1 262251Z 07009KT 26/09 A3009 RMK A01 T02610093  RH  035%=      5-min Rain = 0
KVA1 262252Z 07009KT 26/09 A3009 RMK A01 T02610094  RH  035%=      5-min Rain = 0
KVA1 262253Z 06006KT 26/09 A3009 RMK A01 T02610094  RH  035%=      5-min Rain = 0
KVA1 262254Z 08008KT 26/09 A3009 RMK A01 T02610093  RH  035%=      5-min Rain = 0
KVA1 262255Z 10009KT 26/09 A3009 RMK A01 T02610093  RH  035%=      5-min Rain = 0
KVA1 262256Z 09009KT 26/09 A3009 RMK A01 T02610093  RH  035%=      5-min Rain = 0
KVA1 262257Z 10009KT 26/09 A3009 RMK A01 T02610094  RH  035%=      5-min Rain = 0
KVA1 262258Z 08009KT 26/09 A3009 RMK A01 T02610094  RH  035%=      5-min Rain = 0
KVA1 262259Z 06011KT 26/09 A3009 RMK A01 T02610094  RH  035%=      5-min Rain = 0
KVA1 262300Z 06010KT 26/09 A3009 RMK A01 T02620094  RH  035%=      5-min Rain = 0
KVA1 262301Z 07009KT 26/09 A3009 RMK A01 T02610094  RH  035%=      5-min Rain = 0
KVA1 262302Z 07009KT 26/09 A3009 RMK A01 T02610094  RH  035%=      5-min Rain = 0
KVA1 262303Z 07007KT 26/09 A3009 RMK A01 T02600094  RH  035%=      5-min Rain = 0
KVA1 262304Z 08010KT 26/09 A3009 RMK A01 T02590094  RH  035%=      5-min Rain = 0
KVA1 262305Z 07008KT 26/09 A3009 RMK A01 T02590094  RH  035%=      5-min Rain = 0
KVA1 262306Z 08009KT 26/09 A3009 RMK A01 T02590094  RH  035%=      5-min Rain = 0
KVA1 262307Z 10009KT 26/09 A3009 RMK A01 T02600094  RH  035%=      5-min Rain = 0
KVA1 262308Z 10008KT 26/09 A3009 RMK A01 T02610093  RH  035%=      5-min Rain = 0
KVA1 262309Z 10009KT 26/09 A3009 RMK A01 T02600093  RH  035%=      5-min Rain = 0
KVA1 262310Z 09007KT 26/09 A3009 RMK A01 T02590092  RH  035%=      5-min Rain = 0
KVA1 262311Z 09010KT 26/09 A3009 RMK A01 T02580093  RH  035%=      5-min Rain = 0
KVA1 262312Z 09010KT 26/09 A3009 RMK A01 T02580093  RH  035%=      5-min Rain = 0
KVA1 262313Z 09009KT 26/09 A3009 RMK A01 T02590093  RH  035%=      5-min Rain = 0
KVA1 262314Z 10008KT 26/09 A3009 RMK A01 T02590094  RH  035%=      5-min Rain = 0
KVA1 262315Z 12008KT 26/09 A3009 RMK A01 T02600094  RH  035%=      5-min Rain = 0
KVA1 262316Z 09009KT 26/09 A3009 RMK A01 T02610093  RH  035%=      5-min Rain = 0
KVA1 262317Z 10010KT 26/09 A3009 RMK A01 T02620093  RH  034%=      5-min Rain = 0
KVA1 262318Z 10012KT 26/09 A3009 RMK A01 T02610093  RH  035%=      5-min Rain = 0
KVA1 262319Z 10010KT 26/09 A3009 RMK A01 T02600093  RH  035%=      5-min Rain = 0
KVA1 262320Z 08009KT 26/09 A3009 RMK A01 T02590094  RH  035%=      5-min Rain = 0
KVA1 262321Z 08008KT 26/09 A3009 RMK A01 T02590094  RH  035%=      5-min Rain = 0
KVA1 262322Z 09006KT 26/09 A3009 RMK A01 T02590094  RH  035%=      5-min Rain = 0
KVA1 262323Z 09010KT 26/09 A3009 RMK A01 T02580094  RH  036%=      5-min Rain = 0
KVA1 262324Z 09009KT 26/09 A3009 RMK A01 T02580094  RH  036%=      5-min Rain = 0
KVA1 262325Z 08008KT 26/10 A3009 RMK A01 T02580095  RH  036%=      5-min Rain = 0
KVA1 262326Z 08010KT 26/09 A3009 RMK A01 T02570094  RH  036%=      5-min Rain = 0
KVA1 262327Z 09008KT 26/09 A3009 RMK A01 T02570094  RH  036%=      5-min Rain = 0
KVA1 262328Z 08006KT 26/09 A3009 RMK A01 T02560094  RH  036%=      5-min Rain = 0
KVA1 262329Z 08006KT 26/09 A3009 RMK A01 T02560094  RH  036%=      5-min Rain = 0
KVA1 262330Z 07008KT 26/09 A3009 RMK A01 T02570094  RH  036%=      5-min Rain = 0
KVA1 262331Z 08011KT 26/10 A3009 RMK A01 T02580096  RH  036%=      5-min Rain = 0
KVA1 262332Z 08009KT 26/10 A3009 RMK A01 T02580096  RH  036%=      5-min Rain = 0
KVA1 262333Z 08010KT 26/10 A3009 RMK A01 T02580096  RH  036%=      5-min Rain = 0
KVA1 262334Z 08008KT 26/10 A3009 RMK A01 T02570096  RH  036%=      5-min Rain = 0
KVA1 262335Z 09011KT 26/10 A3009 RMK A01 T02560096  RH  036%=      5-min Rain = 0
KVA1 262336Z 10012KT 26/10 A3009 RMK A01 T02570097  RH  036%=      5-min Rain = 0
KVA1 262337Z 10013KT 26/10 A3009 RMK A01 T02570098  RH  037%=      5-min Rain = 0
KVA1 262338Z 09013KT 26/10 A3009 RMK A01 T02560098  RH  037%=      5-min Rain = 0
KVA1 262339Z 09010KT 26/10 A3009 RMK A01 T02550099  RH  037%=      5-min Rain = 0
KVA1 262340Z 07011KT 26/10 A3009 RMK A01 T02550098  RH  037%=      5-min Rain = 0
KVA1 262341Z 09014KT 26/10 A3009 RMK A01 T02550098  RH  037%=      5-min Rain = 0
KVA1 262342Z 09013KT 25/10 A3009 RMK A01 T02540098  RH  037%=      5-min Rain = 0
KVA1 262343Z 08013KT 25/10 A3009 RMK A01 T02530098  RH  038%=      5-min Rain = 0
KVA1 262344Z 08012KT 25/10 A3009 RMK A01 T02520098  RH  038%=      5-min Rain = 0
KVA1 262345Z 08011KT 25/10 A3009 RMK A01 T02520098  RH  038%=      5-min Rain = 0
KVA1 262346Z 07011KT 25/10 A3009 RMK A01 T02520098  RH  038%=      5-min Rain = 0
KVA1 262347Z 07011KT 25/10 A3009 RMK A01 T02520098  RH  038%=      5-min Rain = 0
KVA1 262348Z 08013KT 25/10 A3009 RMK A01 T02520098  RH  038%=      5-min Rain = 0
KVA1 262349Z 08013KT 25/10 A3009 RMK A01 T02520098  RH  038%=      5-min Rain = 0
KVA1 262350Z 08013KT 25/10 A3009 RMK A01 T02510098  RH  038%=      5-min Rain = 0
KVA1 262351Z 09014KT 25/10 A3009 RMK A01 T02500098  RH  038%=      5-min Rain = 0
KVA1 262352Z 08009KT 25/10 A3009 RMK A01 T02500098  RH  038%=      5-min Rain = 0
KVA1 262353Z 07010KT 25/10 A3009 RMK A01 T02500098  RH  038%=      5-min Rain = 0
KVA1 262354Z 07012KT 25/10 A3009 RMK A01 T02500097  RH  038%=      5-min Rain = 0
KVA1 262355Z 08009KT 25/10 A3009 RMK A01 T02500098  RH  038%=      5-min Rain = 0
KVA1 262356Z 08010KT 25/10 A301 RMK A01 T02500098  RH  038%=      5-min Rain = 0
KVA1 262357Z 08011KT 25/10 A301 RMK A01 T02500098  RH  038%=      5-min Rain = 0
KVA1 262358Z 08011KT 25/10 A301 RMK A01 T02500098  RH  038%=      5-min Rain = 0
KVA1 262359Z 08010KT 25/10 A3009 RMK A01 T02500098  RH  038%=      5-min Rain = 0
KVA1 270000Z 08009KT 25/10 A301 RMK A01 T02500098  RH  038%=      5-min Rain = 0
KVA1 270001Z 07008KT 25/10 A301 RMK A01 T02500098  RH  038%=      5-min Rain = 0
KVA1 270002Z 08007KT 25/10 A301 RMK A01 T02500098  RH  038%=      5-min Rain = 0
KVA1 270003Z 08011KT 25/10 A301 RMK A01 T02500098  RH  038%=      5-min Rain = 0
KVA1 270004Z 08010KT 25/10 A3009 RMK A01 T02500098  RH  038%=      5-min Rain = 0
KVA1 270005Z 08010KT 25/10 A3009 RMK A01 T02500098  RH  038%=      5-min Rain = 0
KVA1 270006Z 06010KT 25/10 A3009 RMK A01 T02500098  RH  038%=      5-min Rain = 0
KVA1 270007Z 06011KT 25/10 A3009 RMK A01 T02500098  RH  038%=      5-min Rain = 0
KVA1 270008Z 07011KT 25/10 A3009 RMK A01 T02500097  RH  038%=      5-min Rain = 0
KVA1 270009Z 08011KT 25/10 A3009 RMK A01 T02500098  RH  038%=      5-min Rain = 0
KVA1 270010Z 08011KT 25/10 A3009 RMK A01 T02500097  RH  038%=      5-min Rain = 0
KVA1 270011Z 08010KT 25/10 A3009 RMK A01 T02500097  RH  038%=      5-min Rain = 0
KVA1 270012Z 08011KT 25/10 A3009 RMK A01 T02490097  RH  038%=      5-min Rain = 0
KVA1 270013Z 07009KT 25/10 A3009 RMK A01 T02500097  RH  038%=      5-min Rain = 0
KVA1 270014Z 07011KT 25/10 A3009 RMK A01 T02500097  RH  038%=      5-min Rain = 0
KVA1 270015Z 07009KT 25/10 A3009 RMK A01 T02500097  RH  038%=      5-min Rain = 0
KVA1 270016Z 08010KT 25/10 A3009 RMK A01 T02490097  RH  038%=      5-min Rain = 0
KVA1 270017Z 09010KT 25/10 A3009 RMK A01 T02500097  RH  038%=      5-min Rain = 0
KVA1 270018Z 08007KT 25/10 A3009 RMK A01 T02500097  RH  038%=      5-min Rain = 0
KVA1 270019Z 07007KT 25/10 A301 RMK A01 T02500097  RH  038%=      5-min Rain = 0
KVA1 270020Z 07008KT 25/10 A301 RMK A01 T02500097  RH  038%=      5-min Rain = 0
KVA1 270021Z 08010KT 25/10 A301 RMK A01 T02500097  RH  038%=      5-min Rain = 0
KVA1 270022Z 09010KT 25/10 A301 RMK A01 T02500097  RH  038%=      5-min Rain = 0
KVA1 270023Z 09010KT 25/10 A301 RMK A01 T02500098  RH  038%=      5-min Rain = 0
KVA1 270024Z 08010KT 25/10 A301 RMK A01 T02500098  RH  038%=      5-min Rain = 0
KVA1 270025Z 08010KT 25/10 A301 RMK A01 T02500097  RH  038%=      5-min Rain = 0
KVA1 270026Z 07009KT 25/10 A301 RMK A01 T02500098  RH  038%=      5-min Rain = 0
KVA1 270027Z 08010KT 25/10 A301 RMK A01 T02500098  RH  038%=      5-min Rain = 0
KVA1 270028Z 07009KT 25/10 A301 RMK A01 T02500098  RH  038%=      5-min Rain = 0
KVA1 270029Z 07011KT 25/10 A3009 RMK A01 T02490098  RH  038%=      5-min Rain = 0
KVA1 270030Z 08013KT 25/10 A3009 RMK A01 T02490098  RH  038%=      5-min Rain = 0
KVA1 270031Z 08012KT 25/10 A3009 RMK A01 T02480097  RH  038%=      5-min Rain = 0
KVA1 270032Z 08012KT 25/10 A3009 RMK A01 T02480097  RH  039%=      5-min Rain = 0
KVA1 270033Z 07013KT 25/10 A3009 RMK A01 T02470097  RH  039%=      5-min Rain = 0
KVA1 270034Z 07011KT 25/10 A3009 RMK A01 T02470097  RH  039%=      5-min Rain = 0
KVA1 270035Z 08009KT 25/10 A301 RMK A01 T02470097  RH  039%=      5-min Rain = 0
KVA1 270036Z 08010KT 25/10 A301 RMK A01 T02470097  RH  039%=      5-min Rain = 0
KVA1 270037Z 08011KT 25/10 A301 RMK A01 T02470097  RH  039%=      5-min Rain = 0
KVA1 270038Z 08010KT 25/10 A301 RMK A01 T02470097  RH  039%=      5-min Rain = 0
KVA1 270039Z 07010KT 25/10 A301 RMK A01 T02470097  RH  039%=      5-min Rain = 0
KVA1 270040Z 07011KT 25/10 A301 RMK A01 T02470097  RH  039%=      5-min Rain = 0
KVA1 270041Z 07010KT 25/10 A301 RMK A01 T02470097  RH  039%=      5-min Rain = 0
KVA1 270042Z 07007KT 25/10 A301 RMK A01 T02460097  RH  039%=      5-min Rain = 0
KVA1 270043Z 07008KT 25/10 A301 RMK A01 T02470097  RH  039%=      5-min Rain = 0
KVA1 270044Z 08011KT 25/10 A301 RMK A01 T02460096  RH  039%=      5-min Rain = 0
KVA1 270045Z 08011KT 25/10 A3009 RMK A01 T02460097  RH  039%=      5-min Rain = 0
KVA1 270046Z 07010KT 25/10 A3009 RMK A01 T02460097  RH  039%=      5-min Rain = 0
KVA1 270047Z 07011KT 25/10 A3009 RMK A01 T02460097  RH  039%=      5-min Rain = 0
KVA1 270048Z 07011KT 25/10 A3009 RMK A01 T02450096  RH  039%=      5-min Rain = 0
KVA1 270049Z 07011KT 25/10 A3009 RMK A01 T02450096  RH  039%=      5-min Rain = 0
KVA1 270050Z 06013KT 25/10 A3009 RMK A01 T02450096  RH  039%=      5-min Rain = 0
KVA1 270051Z 06014KT 24/10 A3009 RMK A01 T02440096  RH  039%=      5-min Rain = 0
KVA1 270052Z 07012KT 24/10 A3009 RMK A01 T02440096  RH  039%=      5-min Rain = 0
KVA1 270053Z 07011KT 24/10 A3009 RMK A01 T02430096  RH  039%=      5-min Rain = 0
KVA1 270054Z 07010KT 24/10 A3009 RMK A01 T02430096  RH  039%=      5-min Rain = 0
KVA1 270055Z 07010KT 24/10 A3009 RMK A01 T02430095  RH  039%=      5-min Rain = 0
KVA1 270056Z 07011KT 24/10 A3009 RMK A01 T02430096  RH  039%=      5-min Rain = 0
KVA1 270057Z 07011KT 24/10 A3009 RMK A01 T02430095  RH  039%=      5-min Rain = 0
KVA1 270058Z 07012G17KT 24/10 A3009 RMK A01 T02420095  RH  039%=      5-min Rain = 0
KVA1 270059Z 07012G17KT 24/10 A3008 RMK A01 T02420095  RH  039%=      5-min Rain = 0
KVA1 270100Z 07012KT 24/10 A3009 RMK A01 T02410095  RH  039%=      5-min Rain = 0
KVA1 270101Z 08011KT 24/10 A3009 RMK A01 T02410095  RH  040%=      5-min Rain = 0
KVA1 270102Z 07011KT 24/10 A3009 RMK A01 T02400095  RH  040%=      5-min Rain = 0
KVA1 270103Z 07011KT 24/09 A3009 RMK A01 T02400094  RH  040%=      5-min Rain = 0
KVA1 270104Z 06009KT 24/09 A3009 RMK A01 T02390094  RH  040%=      5-min Rain = 0
KVA1 270105Z 06011KT 24/09 A3009 RMK A01 T02390094  RH  040%=      5-min Rain = 0
KVA1 270106Z 06009KT 24/09 A3009 RMK A01 T02390094  RH  040%=      5-min Rain = 0
KVA1 270107Z 06009KT 24/09 A3009 RMK A01 T02380094  RH  040%=      5-min Rain = 0
KVA1 270108Z 06011KT 24/09 A3009 RMK A01 T02380094  RH  040%=      5-min Rain = 0
KVA1 270109Z 06012KT 24/09 A3009 RMK A01 T02370094  RH  040%=      5-min Rain = 0
KVA1 270110Z 06012KT 24/09 A3009 RMK A01 T02370094  RH  040%=      5-min Rain = 0
KVA1 270111Z 06013KT 24/09 A3009 RMK A01 T02370094  RH  040%=      5-min Rain = 0
KVA1 270112Z 05013KT 24/09 A3009 RMK A01 T02370094  RH  040%=      5-min Rain = 0
KVA1 270113Z 06012G17KT 24/09 A3009 RMK A01 T02370094  RH  040%=      5-min Rain = 0
KVA1 270114Z 06011KT 24/09 A3009 RMK A01 T02360094  RH  040%=      5-min Rain = 0
KVA1 270115Z 06009KT 24/09 A3009 RMK A01 T02360094  RH  040%=      5-min Rain = 0
KVA1 270116Z 07012KT 24/09 A3009 RMK A01 T02350094  RH  041%=      5-min Rain = 0
KVA1 270117Z 07008KT 24/09 A3009 RMK A01 T02350094  RH  041%=      5-min Rain = 0
KVA1 270118Z 07009KT 23/09 A3009 RMK A01 T02340094  RH  041%=      5-min Rain = 0
KVA1 270119Z 06009KT 23/09 A3009 RMK A01 T02340094  RH  041%=      5-min Rain = 0
KVA1 270120Z 06011KT 23/09 A3008 RMK A01 T02330094  RH  041%=      5-min Rain = 0
KVA1 270121Z 07010KT 23/09 A3008 RMK A01 T02330094  RH  041%=      5-min Rain = 0
KVA1 270122Z 07012KT 23/09 A3008 RMK A01 T02320094  RH  041%=      5-min Rain = 0
KVA1 270123Z 07009KT 23/09 A3008 RMK A01 T02320094  RH  041%=      5-min Rain = 0
KVA1 270124Z 07011KT 23/09 A3008 RMK A01 T02320094  RH  042%=      5-min Rain = 0
KVA1 270125Z 07011KT 23/09 A3008 RMK A01 T02310094  RH  042%=      5-min Rain = 0
KVA1 270126Z 06009KT 23/09 A3008 RMK A01 T02310094  RH  042%=      5-min Rain = 0
KVA1 270127Z 06011KT 23/09 A3009 RMK A01 T02310094  RH  042%=      5-min Rain = 0
KVA1 270128Z 07012KT 23/09 A3009 RMK A01 T02310094  RH  042%=      5-min Rain = 0
KVA1 270129Z 06010KT 23/09 A3009 RMK A01 T02310094  RH  042%=      5-min Rain = 0
KVA1 270130Z 06010KT 23/09 A3009 RMK A01 T02310094  RH  042%=      5-min Rain = 0
KVA1 270131Z 06010KT 23/09 A3009 RMK A01 T02300094  RH  042%=      5-min Rain = 0
KVA1 270132Z 06010KT 23/10 A3009 RMK A01 T02300095  RH  042%=      5-min Rain = 0
KVA1 270133Z 06010KT 23/09 A3009 RMK A01 T02300094  RH  042%=      5-min Rain = 0
KVA1 270134Z 06009KT 23/09 A3009 RMK A01 T02290094  RH  042%=      5-min Rain = 0
KVA1 270135Z 06011KT 23/09 A3009 RMK A01 T02290094  RH  042%=      5-min Rain = 0
KVA1 270136Z 06011KT 23/09 A3009 RMK A01 T02280094  RH  042%=      5-min Rain = 0
KVA1 270137Z 06011KT 23/09 A3009 RMK A01 T02280094  RH  042%=      5-min Rain = 0
KVA1 270138Z 06011KT 23/09 A3009 RMK A01 T02280094  RH  042%=      5-min Rain = 0
KVA1 270139Z 06012KT 23/09 A3009 RMK A01 T02280094  RH  043%=      5-min Rain = 0
KVA1 270140Z 07011KT 23/09 A3009 RMK A01 T02280094  RH  043%=      5-min Rain = 0
KVA1 270141Z 06010KT 23/09 A3009 RMK A01 T02280094  RH  043%=      5-min Rain = 0
KVA1 270142Z 07010KT 23/09 A3009 RMK A01 T02280094  RH  043%=      5-min Rain = 0
KVA1 270143Z 07009KT 23/09 A3009 RMK A01 T02270094  RH  043%=      5-min Rain = 0
KVA1 270144Z 07008KT 23/09 A3009 RMK A01 T02270094  RH  043%=      5-min Rain = 0
KVA1 270145Z 07009KT 23/09 A3009 RMK A01 T02260093  RH  043%=      5-min Rain = 0
KVA1 270146Z 06011KT 23/09 A3009 RMK A01 T02260093  RH  043%=      5-min Rain = 0
KVA1 270147Z 07010KT 23/09 A3009 RMK A01 T02260094  RH  043%=      5-min Rain = 0
KVA1 270148Z 07009KT 23/09 A3009 RMK A01 T02260094  RH  043%=      5-min Rain = 0
KVA1 270149Z 06011KT 23/09 A3009 RMK A01 T02260094  RH  043%=      5-min Rain = 0
KVA1 270150Z 07008KT 23/09 A3009 RMK A01 T02260093  RH  043%=      5-min Rain = 0
KVA1 270151Z 06010KT 23/09 A3009 RMK A01 T02260094  RH  043%=      5-min Rain = 0
KVA1 270152Z 06013KT 23/09 A3009 RMK A01 T02250093  RH  043%=      5-min Rain = 0
KVA1 270153Z 06012KT 23/09 A3009 RMK A01 T02260094  RH  043%=      5-min Rain = 0
KVA1 270154Z 07009KT 23/09 A3009 RMK A01 T02250093  RH  043%=      5-min Rain = 0
KVA1 270155Z 07008KT 23/09 A3009 RMK A01 T02250093  RH  043%=      5-min Rain = 0
KVA1 270156Z 07008KT 22/09 A3009 RMK A01 T02240093  RH  043%=      5-min Rain = 0
KVA1 270157Z 07009KT 22/09 A3009 RMK A01 T02240093  RH  043%=      5-min Rain = 0
KVA1 270158Z 06010KT 22/09 A3009 RMK A01 T02240093  RH  043%=      5-min Rain = 0
KVA1 270159Z 06008KT 22/09 A3009 RMK A01 T02240093  RH  043%=      5-min Rain = 0
KVA1 270200Z 07007KT 22/09 A3009 RMK A01 T02230093  RH  043%=      5-min Rain = 0
KVA1 270201Z 07008KT 22/09 A3009 RMK A01 T02230093  RH  043%=      5-min Rain = 0
KVA1 270202Z 07009KT 22/09 A3009 RMK A01 T02230093  RH  043%=      5-min Rain = 0
KVA1 270203Z 07008KT 22/09 A3009 RMK A01 T02230093  RH  043%=      5-min Rain = 0
KVA1 270204Z 07008KT 22/09 A301 RMK A01 T02230093  RH  044%=      5-min Rain = 0
KVA1 270205Z 07008KT 22/09 A301 RMK A01 T02230093  RH  044%=      5-min Rain = 0
KVA1 270206Z 07009KT 22/09 A301 RMK A01 T02230093  RH  044%=      5-min Rain = 0
KVA1 270207Z 06007KT 22/09 A301 RMK A01 T02220093  RH  044%=      5-min Rain = 0
KVA1 270208Z 06007KT 22/09 A301 RMK A01 T02230093  RH  044%=      5-min Rain = 0
KVA1 270209Z 07007KT 22/09 A301 RMK A01 T02230093  RH  044%=      5-min Rain = 0
KVA1 270210Z 07006KT 22/09 A301 RMK A01 T02220093  RH  044%=      5-min Rain = 0
KVA1 270211Z 07006KT 22/09 A301 RMK A01 T02220092  RH  044%=      5-min Rain = 0
KVA1 270212Z 07006KT 22/09 A301 RMK A01 T02210092  RH  044%=      5-min Rain = 0
KVA1 270213Z 07006KT 22/09 A301 RMK A01 T02210093  RH  044%=      5-min Rain = 0
KVA1 270214Z 07005KT 22/09 A301 RMK A01 T02200092  RH  044%=      5-min Rain = 0
KVA1 270215Z 07006KT 22/09 A301 RMK A01 T02200092  RH  044%=      5-min Rain = 0
KVA1 270216Z 07008KT 22/09 A301 RMK A01 T02190092  RH  044%=      5-min Rain = 0
KVA1 270217Z 07007KT 22/09 A301 RMK A01 T02190092  RH  044%=      5-min Rain = 0
KVA1 270218Z 08008KT 22/09 A301 RMK A01 T02200093  RH  044%=      5-min Rain = 0
KVA1 270219Z 08008KT 22/09 A301 RMK A01 T02190092  RH  044%=      5-min Rain = 0
KVA1 270220Z 09008KT 22/09 A301 RMK A01 T02190093  RH  044%=      5-min Rain = 0
KVA1 270221Z 08007KT 22/09 A301 RMK A01 T02180093  RH  045%=      5-min Rain = 0
KVA1 270222Z 08006KT 22/09 A301 RMK A01 T02180092  RH  045%=      5-min Rain = 0
KVA1 270223Z 08007KT 22/09 A301 RMK A01 T02170092  RH  045%=      5-min Rain = 0
KVA1 270224Z 08007KT 22/09 A301 RMK A01 T02170092  RH  045%=      5-min Rain = 0
KVA1 270225Z 07006KT 22/09 A301 RMK A01 T02170092  RH  045%=      5-min Rain = 0
KVA1 270226Z 07007KT 22/09 A301 RMK A01 T02160092  RH  045%=      5-min Rain = 0
KVA1 270227Z 07006KT 22/09 A301 RMK A01 T02160092  RH  045%=      5-min Rain = 0
KVA1 270228Z 07006KT 22/09 A301 RMK A01 T02160092  RH  045%=      5-min Rain = 0
KVA1 270229Z 06005KT 22/09 A301 RMK A01 T02150092  RH  045%=      5-min Rain = 0
KVA1 270230Z 06006KT 22/09 A3011 RMK A01 T02150092  RH  045%=      5-min Rain = 0
KVA1 270231Z 06005KT 22/09 A3011 RMK A01 T02150092  RH  045%=      5-min Rain = 0
KVA1 270232Z 06005KT 22/09 A3011 RMK A01 T02150092  RH  045%=      5-min Rain = 0
KVA1 270233Z 07004KT 22/09 A3011 RMK A01 T02150092  RH  045%=      5-min Rain = 0
KVA1 270234Z 06004KT 21/09 A3011 RMK A01 T02140092  RH  045%=      5-min Rain = 0
KVA1 270235Z 07004KT 21/09 A3011 RMK A01 T02140092  RH  046%=      5-min Rain = 0
KVA1 270236Z 08003KT 21/09 A3011 RMK A01 T02140092  RH  046%=      5-min Rain = 0
KVA1 270237Z 08003KT 21/09 A3011 RMK A01 T02130092  RH  046%=      5-min Rain = 0
KVA1 270238Z 08003KT 21/09 A3011 RMK A01 T02120092  RH  046%=      5-min Rain = 0
KVA1 270239Z 09003KT 21/09 A3011 RMK A01 T02120092  RH  046%=      5-min Rain = 0
KVA1 270240Z 10003KT 21/09 A3011 RMK A01 T02120092  RH  046%=      5-min Rain = 0
KVA1 270241Z 10003KT 21/09 A3011 RMK A01 T02120091  RH  046%=      5-min Rain = 0
KVA1 270242Z 10004KT 21/09 A3011 RMK A01 T02120091  RH  046%=      5-min Rain = 0
KVA1 270243Z 09004KT 21/09 A3011 RMK A01 T02110091  RH  046%=      5-min Rain = 0
KVA1 270244Z 09004KT 21/09 A3011 RMK A01 T02110091  RH  046%=      5-min Rain = 0
KVA1 270245Z 08003KT 21/09 A3011 RMK A01 T02110091  RH  046%=      5-min Rain = 0
KVA1 270246Z 09003KT 21/09 A3011 RMK A01 T02110091  RH  046%=      5-min Rain = 0
KVA1 270247Z 08004KT 21/09 A3011 RMK A01 T02120091  RH  046%=      5-min Rain = 0
KVA1 270248Z 07003KT 21/09 A3011 RMK A01 T02120092  RH  046%=      5-min Rain = 0
KVA1 270249Z 07004KT 21/09 A3012 RMK A01 T02110091  RH  046%=      5-min Rain = 0
KVA1 270250Z 07004KT 21/09 A3012 RMK A01 T02120092  RH  046%=      5-min Rain = 0
KVA1 270251Z 07004KT 21/09 A3012 RMK A01 T02120092  RH  046%=      5-min Rain = 0
KVA1 270252Z 07003KT 21/09 A3012 RMK A01 T02120092  RH  046%=      5-min Rain = 0
KVA1 270253Z 07002KT 21/09 A3012 RMK A01 T02120092  RH  046%=      5-min Rain = 0
KVA1 270254Z 05003KT 21/09 A3013 RMK A01 T02120091  RH  046%=      5-min Rain = 0
KVA1 270255Z 04002KT 21/09 A3013 RMK A01 T02120092  RH  046%=      5-min Rain = 0
KVA1 270256Z 04003KT 21/09 A3013 RMK A01 T02130092  RH  046%=      5-min Rain = 0
KVA1 270257Z 04003KT 21/09 A3013 RMK A01 T02130092  RH  046%=      5-min Rain = 0
KVA1 270258Z 04004KT 21/09 A3014 RMK A01 T02120091  RH  046%=      5-min Rain = 0
KVA1 270259Z 05005KT 21/09 A3014 RMK A01 T02130092  RH  046%=      5-min Rain = 0
KVA1 270300Z 04006KT 21/09 A3014 RMK A01 T02130092  RH  046%=      5-min Rain = 0
KVA1 270301Z 04005KT 21/09 A3014 RMK A01 T02130092  RH  046%=      5-min Rain = 0
KVA1 270302Z 04005KT 21/09 A3015 RMK A01 T02140092  RH  046%=      5-min Rain = 0
KVA1 270303Z 03004KT 22/09 A3015 RMK A01 T02150093  RH  045%=      5-min Rain = 0
KVA1 270304Z 03004KT 22/09 A3015 RMK A01 T02160092  RH  045%=      5-min Rain = 0
KVA1 270305Z 03004KT 22/09 A3015 RMK A01 T02160093  RH  045%=      5-min Rain = 0
KVA1 270306Z 05004KT 22/09 A3015 RMK A01 T02160093  RH  045%=      5-min Rain = 0
KVA1 270307Z 05004KT 22/09 A3015 RMK A01 T02160093  RH  045%=      5-min Rain = 0
KVA1 270308Z 07003KT 22/09 A3015 RMK A01 T02160093  RH  045%=      5-min Rain = 0
KVA1 270309Z 09002KT 22/09 A3015 RMK A01 T02160093  RH  045%=      5-min Rain = 0
KVA1 270310Z 07002KT 22/09 A3015 RMK A01 T02160093  RH  045%=      5-min Rain = 0
KVA1 270311Z 13003KT 22/09 A3015 RMK A01 T02160094  RH  046%=      5-min Rain = 0
KVA1 270312Z 12004KT 22/09 A3015 RMK A01 T02160094  RH  046%=      5-min Rain = 0
KVA1 270313Z 12004KT 22/09 A3015 RMK A01 T02160094  RH  046%=      5-min Rain = 0
KVA1 270314Z 16006KT 22/09 A3015 RMK A01 T02160094  RH  046%=      5-min Rain = 0
KVA1 270315Z 15005KT 22/09 A3015 RMK A01 T02170094  RH  045%=      5-min Rain = 0
KVA1 270316Z 15005KT 22/09 A3015 RMK A01 T02180094  RH  045%=      5-min Rain = 0
KVA1 270317Z 16008KT 22/10 A3015 RMK A01 T02190095  RH  045%=      5-min Rain = 0
KVA1 270318Z 17009G14KT 22/10 A3015 RMK A01 T02190095  RH  045%=      5-min Rain = 0
KVA1 270319Z 17010KT 22/10 A3016 RMK A01 T02190095  RH  045%=      5-min Rain = 0
KVA1 270320Z 18013KT 22/10 A3016 RMK A01 T02200097  RH  045%=      5-min Rain = 0
KVA1 270321Z 18010KT 22/10 A3016 RMK A01 T02200100  RH  046%=      5-min Rain = 0
KVA1 270322Z 18011KT 22/10 A3017 RMK A01 T02190101  RH  047%=      5-min Rain = 0
KVA1 270323Z 18010KT 22/10 A3017 RMK A01 T02190100  RH  047%=      5-min Rain = 0
KVA1 270324Z 18010G15KT 22/10 A3017 RMK A01 T02190101  RH  047%=      5-min Rain = 0
KVA1 270325Z 17012KT 22/10 A3017 RMK A01 T02180101  RH  047%=      5-min Rain = 0
KVA1 270326Z 18014KT 22/10 A3018 RMK A01 T02180102  RH  048%=      5-min Rain = 0
KVA1 270327Z 19013KT 22/10 A3018 RMK A01 T02170103  RH  048%=      5-min Rain = 0
KVA1 270328Z 21017G23KT 22/11 A3018 RMK A01 T02160106  RH  049%=      5-min Rain = 0
KVA1 270329Z 19019G30KT 21/11 A3019 RMK A01 T02140110  RH  052%=      5-min Rain = 0
KVA1 270330Z 20023G29KT 21/12 A3019 RMK A01 T02080119  RH  057%=      5-min Rain = 0
KVA1 270331Z 20021G26KT 20/13 A3019 RMK A01 T01990126  RH  063%=      5-min Rain = 0
KVA1 270332Z 21019KT 19/13 A302 RMK A01 T01920131  RH  068%=      5-min Rain = 0
KVA1 270333Z 21017KT 19/13 A302 RMK A01 T01850133  RH  072%=      5-min Rain = 0
KVA1 270334Z 21016KT 18/14 A302 RMK A01 T01790135  RH  075%=      5-min Rain = 0
KVA1 270335Z 21013KT 18/13 A302 RMK A01 T01750133  RH  076%=      5-min Rain = 0.01
KVA1 270336Z 21012KT 17/13 A302 RMK A01 T01730133  RH  077%=      5-min Rain = 0
KVA1 270337Z 21011KT 17/13 A302 RMK A01 T01720133  RH  077%=      5-min Rain = 0
KVA1 270338Z 22008KT 17/13 A302 RMK A01 T01720134  RH  078%=      5-min Rain = 0
KVA1 270339Z 23007KT 17/13 A302 RMK A01 T01710134  RH  079%=      5-min Rain = 0
KVA1 270340Z 22007KT 17/14 A302 RMK A01 T01700135  RH  080%=      5-min Rain = 0
KVA1 270341Z 21007KT 17/14 A302 RMK A01 T01700136  RH  080%=      5-min Rain = 0
KVA1 270342Z 21007KT 17/14 A3019 RMK A01 T01690135  RH  080%=      5-min Rain = 0.01
KVA1 270343Z 20008KT 17/14 A3019 RMK A01 T01690136  RH  081%=      5-min Rain = 0
KVA1 270344Z 20006KT 17/14 A3019 RMK A01 T01690136  RH  081%=      5-min Rain = 0
KVA1 270345Z 19005KT 17/14 A3019 RMK A01 T01690136  RH  081%=      5-min Rain = 0
KVA1 270346Z 17005KT 17/14 A3019 RMK A01 T01680137  RH  082%=      5-min Rain = 0
KVA1 270347Z 15004KT 17/14 A3019 RMK A01 T01680136  RH  081%=      5-min Rain = 0
KVA1 270348Z 14004KT 17/14 A3019 RMK A01 T01670139  RH  083%=      5-min Rain = 0.01
KVA1 270349Z 12005KT 17/14 A3018 RMK A01 T01670140  RH  084%=      5-min Rain = 0
KVA1 270350Z 11005KT 17/14 A3018 RMK A01 T01660141  RH  085%=      5-min Rain = 0
KVA1 270351Z 11006KT 17/14 A3018 RMK A01 T01650142  RH  087%=      5-min Rain = 0
KVA1 270352Z 10007KT 16/14 A3018 RMK A01 T01640142  RH  087%=      5-min Rain = 0
KVA1 270353Z 09007KT 16/14 A3018 RMK A01 T01640142  RH  087%=      5-min Rain = 0.01
KVA1 270354Z 09007KT 16/14 A3018 RMK A01 T01640142  RH  087%=      5-min Rain = 0
KVA1 270355Z 08008KT 16/14 A3018 RMK A01 T01630143  RH  088%=      5-min Rain = 0
KVA1 270356Z 08007KT 16/14 A3018 RMK A01 T01630143  RH  088%=      5-min Rain = 0
KVA1 270357Z 08007KT 16/14 A3018 RMK A01 T01630143  RH  088%=      5-min Rain = 0
KVA1 270358Z 08007KT 16/14 A3018 RMK A01 T01630143  RH  088%=      5-min Rain = 0
KVA1 270359Z 08006KT 16/14 A3019 RMK A01 T01620143  RH  088%=      5-min Rain = 0
KVA1 270400Z 07008KT 16/14 A3019 RMK A01 T01620144  RH  089%=      5-min Rain = 0
KVA1 270401Z 08007KT 16/14 A3019 RMK A01 T01620144  RH  089%=      5-min Rain = 0
KVA1 270402Z 08006KT 16/14 A3019 RMK A01 T01620144  RH  089%=      5-min Rain = 0
KVA1 270403Z 08005KT 16/14 A3019 RMK A01 T01620142  RH  088%=      5-min Rain = 0
KVA1 270404Z 07005KT 16/14 A3018 RMK A01 T01620142  RH  088%=      5-min Rain = 0
KVA1 270405Z 08006KT 16/14 A3018 RMK A01 T01620142  RH  088%=      5-min Rain = 0
KVA1 270406Z 08005KT 16/14 A3018 RMK A01 T01620141  RH  087%=      5-min Rain = 0
KVA1 270407Z 08005KT 16/14 A3018 RMK A01 T01620140  RH  087%=      5-min Rain = 0
KVA1 270408Z 10003KT 16/14 A3018 RMK A01 T01620139  RH  086%=      5-min Rain = 0
KVA1 270409Z 10002KT 16/14 A3018 RMK A01 T01620139  RH  086%=      5-min Rain = 0
KVA1 270410Z 06001KT 16/14 A3018 RMK A01 T01620140  RH  087%=      5-min Rain = 0
KVA1 270411Z 07002KT 16/14 A3018 RMK A01 T01620141  RH  087%=      5-min Rain = 0
KVA1 270412Z 07004KT 16/14 A3018 RMK A01 T01620140  RH  087%=      5-min Rain = 0
KVA1 270413Z 06004KT 16/14 A3018 RMK A01 T01620139  RH  086%=      5-min Rain = 0
KVA1 270414Z 06005KT 16/14 A3018 RMK A01 T01620139  RH  086%=      5-min Rain = 0
KVA1 270415Z 07005KT 16/14 A3018 RMK A01 T01610139  RH  086%=      5-min Rain = 0
KVA1 270416Z 07005KT 16/14 A3018 RMK A01 T01620139  RH  087%=      5-min Rain = 0
KVA1 270417Z 08006KT 16/14 A3018 RMK A01 T01620140  RH  087%=      5-min Rain = 0
KVA1 270418Z 08007KT 16/14 A3018 RMK A01 T01620140  RH  087%=      5-min Rain = 0
KVA1 270419Z 08007KT 16/14 A3018 RMK A01 T01620140  RH  087%=      5-min Rain = 0
KVA1 270420Z 08006KT 16/14 A3018 RMK A01 T01620139  RH  086%=      5-min Rain = 0
KVA1 270421Z 08005KT 16/14 A3017 RMK A01 T01620139  RH  086%=      5-min Rain = 0
KVA1 270422Z 08005KT 16/14 A3017 RMK A01 T01620139  RH  086%=      5-min Rain = 0
KVA1 270423Z 08005KT 16/14 A3017 RMK A01 T01620139  RH  086%=      5-min Rain = 0
KVA1 270424Z 08005KT 16/14 A3017 RMK A01 T01620139  RH  086%=      5-min Rain = 0
KVA1 270425Z 08005KT 16/14 A3017 RMK A01 T01620139  RH  086%=      5-min Rain = 0
KVA1 270426Z 08004KT 16/14 A3017 RMK A01 T01610139  RH  087%=      5-min Rain = 0
KVA1 270427Z 08004KT 16/14 A3017 RMK A01 T01610139  RH  087%=      5-min Rain = 0
KVA1 270428Z 07003KT 16/14 A3017 RMK A01 T01610138  RH  087%=      5-min Rain = 0
KVA1 270429Z 06001KT 16/14 A3017 RMK A01 T01600138  RH  086%=      5-min Rain = 0
KVA1 270430Z 08001KT 16/14 A3017 RMK A01 T01610139  RH  087%=      5-min Rain = 0
KVA1 270431Z 08000KT 16/14 A3017 RMK A01 T01600138  RH  087%=      5-min Rain = 0
KVA1 270432Z 05001KT 16/14 A3017 RMK A01 T01600138  RH  087%=      5-min Rain = 0
KVA1 270433Z 03001KT 16/14 A3017 RMK A01 T01600139  RH  087%=      5-min Rain = 0
KVA1 270434Z 00001KT 16/14 A3017 RMK A01 T01600141  RH  089%=      5-min Rain = 0
KVA1 270435Z 33002KT 16/14 A3017 RMK A01 T01580141  RH  089%=      5-min Rain = 0
KVA1 270436Z 32003KT 16/14 A3017 RMK A01 T01570140  RH  089%=      5-min Rain = 0
KVA1 270437Z 31004KT 16/14 A3017 RMK A01 T01560139  RH  090%=      5-min Rain = 0
KVA1 270438Z 30004KT 16/14 A3017 RMK A01 T01550139  RH  090%=      5-min Rain = 0
KVA1 270439Z 30004KT 15/14 A3017 RMK A01 T01540139  RH  091%=      5-min Rain = 0
KVA1 270440Z 31004KT 15/14 A3017 RMK A01 T01540139  RH  091%=      5-min Rain = 0
KVA1 270441Z 31003KT 15/14 A3018 RMK A01 T01530139  RH  091%=      5-min Rain = 0
KVA1 270442Z 31003KT 15/14 A3018 RMK A01 T01530139  RH  091%=      5-min Rain = 0
KVA1 270443Z 32003KT 15/14 A3017 RMK A01 T01530139  RH  092%=      5-min Rain = 0
KVA1 270444Z 32004KT 15/14 A3017 RMK A01 T01530139  RH  092%=      5-min Rain = 0
KVA1 270445Z 33003KT 15/14 A3018 RMK A01 T01530139  RH  092%=      5-min Rain = 0
KVA1 270446Z 33003KT 15/14 A3018 RMK A01 T01530139  RH  091%=      5-min Rain = 0
KVA1 270447Z 35003KT 15/14 A3018 RMK A01 T01530138  RH  091%=      5-min Rain = 0
KVA1 270448Z 34003KT 15/14 A3018 RMK A01 T01530139  RH  091%=      5-min Rain = 0
KVA1 270449Z 34003KT 15/14 A3018 RMK A01 T01530139  RH  091%=      5-min Rain = 0
KVA1 270450Z 34002KT 15/14 A3018 RMK A01 T01530139  RH  091%=      5-min Rain = 0
KVA1 270451Z 32002KT 15/14 A3018 RMK A01 T01530139  RH  091%=      5-min Rain = 0
KVA1 270452Z 31002KT 15/14 A3018 RMK A01 T01530139  RH  091%=      5-min Rain = 0
KVA1 270453Z 32003KT 15/14 A3018 RMK A01 T01530138  RH  091%=      5-min Rain = 0
KVA1 270454Z 32003KT 15/14 A3017 RMK A01 T01520137  RH  091%=      5-min Rain = 0
KVA1 270455Z 32002KT 15/14 A3017 RMK A01 T01520137  RH  091%=      5-min Rain = 0
KVA1 270456Z 33002KT 15/14 A3017 RMK A01 T01510137  RH  092%=      5-min Rain = 0
KVA1 270457Z 35002KT 15/14 A3017 RMK A01 T01510137  RH  092%=      5-min Rain = 0
KVA1 270458Z 35003KT 15/14 A3017 RMK A01 T01510138  RH  092%=      5-min Rain = 0
KVA1 270459Z 35004KT 15/14 A3017 RMK A01 T01510138  RH  092%=      5-min Rain = 0

Page generated in 0.2226 seconds.